Observation data for Van Horn on 12/10/2018      Previous  Date       Current Mesonet Observations  Soil Data  Daily Summary Page  Observations in Plain Language
KVA1 100600Z 24003KT 02/02 A3037 RMK A01 T00210018  RH  098%=      5-min Rain = 0
KVA1 100601Z 24002KT 02/02 A3037 RMK A01 T00210018  RH  098%=      5-min Rain = 0
KVA1 100602Z 23002KT 02/02 A3037 RMK A01 T00210018  RH  098%=      5-min Rain = 0
KVA1 100603Z 23002KT 02/02 A3037 RMK A01 T00210018  RH  098%=      5-min Rain = 0
KVA1 100604Z 23002KT 02/02 A3037 RMK A01 T00210018  RH  098%=      5-min Rain = 0
KVA1 100605Z 24002KT 02/02 A3037 RMK A01 T00210017  RH  098%=      5-min Rain = 0
KVA1 100606Z 24001KT 02/02 A3037 RMK A01 T00200016  RH  098%=      5-min Rain = 0
KVA1 100607Z 25000KT 02/02 A3037 RMK A01 T00180015  RH  097%=      5-min Rain = 0
KVA1 100608Z 31000KT 02/01 A3037 RMK A01 T00170013  RH  097%=      5-min Rain = 0
KVA1 100609Z 31001KT 02/01 A3037 RMK A01 T00160012  RH  097%=      5-min Rain = 0
KVA1 100610Z 28000KT 02/01 A3037 RMK A01 T00150011  RH  097%=      5-min Rain = 0
KVA1 100611Z 27001KT 01/01 A3037 RMK A01 T00140010  RH  097%=      5-min Rain = 0
KVA1 100612Z 24001KT 01/01 A3037 RMK A01 T00130009  RH  097%=      5-min Rain = 0
KVA1 100613Z 24002KT 01/01 A3037 RMK A01 T00130009  RH  097%=      5-min Rain = 0
KVA1 100614Z 24002KT 01/01 A3037 RMK A01 T00130009  RH  097%=      5-min Rain = 0
KVA1 100615Z 24002KT 01/01 A3037 RMK A01 T00130009  RH  097%=      5-min Rain = 0
KVA1 100616Z 24002KT 01/01 A3037 RMK A01 T00120009  RH  097%=      5-min Rain = 0
KVA1 100617Z 24002KT 01/01 A3037 RMK A01 T00120009  RH  097%=      5-min Rain = 0
KVA1 100618Z 25002KT 01/01 A3037 RMK A01 T00120008  RH  097%=      5-min Rain = 0
KVA1 100619Z 25002KT 01/01 A3037 RMK A01 T00120008  RH  098%=      5-min Rain = 0
KVA1 100620Z 26003KT 01/01 A3037 RMK A01 T00120008  RH  098%=      5-min Rain = 0
KVA1 100621Z 26003KT 01/01 A3037 RMK A01 T00120009  RH  098%=      5-min Rain = 0
KVA1 100622Z 26003KT 01/01 A3037 RMK A01 T00120009  RH  098%=      5-min Rain = 0
KVA1 100623Z 27004KT 01/01 A3037 RMK A01 T00120009  RH  098%=      5-min Rain = 0
KVA1 100624Z 27004KT 01/01 A3037 RMK A01 T00120009  RH  098%=      5-min Rain = 0
KVA1 100625Z 27004KT 01/01 A3037 RMK A01 T00130010  RH  098%=      5-min Rain = 0
KVA1 100626Z 27004KT 01/01 A3037 RMK A01 T00140011  RH  098%=      5-min Rain = 0
KVA1 100627Z 27004KT 02/01 A3037 RMK A01 T00150012  RH  098%=      5-min Rain = 0
KVA1 100628Z 27003KT 02/01 A3037 RMK A01 T00150013  RH  098%=      5-min Rain = 0
KVA1 100629Z 27003KT 02/01 A3037 RMK A01 T00150013  RH  098%=      5-min Rain = 0
KVA1 100630Z 27003KT 02/01 A3037 RMK A01 T00150012  RH  098%=      5-min Rain = 0
KVA1 100631Z 28003KT 02/01 A3037 RMK A01 T00150012  RH  098%=      5-min Rain = 0
KVA1 100632Z 28003KT 02/01 A3037 RMK A01 T00160013  RH  098%=      5-min Rain = 0
KVA1 100633Z 28003KT 02/01 A3037 RMK A01 T00160013  RH  098%=      5-min Rain = 0
KVA1 100634Z 28003KT 02/01 A3037 RMK A01 T00160014  RH  098%=      5-min Rain = 0
KVA1 100635Z 29003KT 02/01 A3037 RMK A01 T00170014  RH  098%=      5-min Rain = 0
KVA1 100636Z 29003KT 02/01 A3037 RMK A01 T00170014  RH  098%=      5-min Rain = 0
KVA1 100637Z 29003KT 02/01 A3037 RMK A01 T00170014  RH  098%=      5-min Rain = 0
KVA1 100638Z 30003KT 02/01 A3037 RMK A01 T00160014  RH  098%=      5-min Rain = 0
KVA1 100639Z 30003KT 02/01 A3037 RMK A01 T00170014  RH  098%=      5-min Rain = 0
KVA1 100640Z 31003KT 02/01 A3037 RMK A01 T00170014  RH  098%=      5-min Rain = 0
KVA1 100641Z 30004KT 02/01 A3037 RMK A01 T00150012  RH  098%=      5-min Rain = 0
KVA1 100642Z 31004KT 01/01 A3037 RMK A01 T00140011  RH  098%=      5-min Rain = 0
KVA1 100643Z 32004KT 01/01 A3037 RMK A01 T00130010  RH  098%=      5-min Rain = 0
KVA1 100644Z 34003KT 01/01 A3037 RMK A01 T00120009  RH  098%=      5-min Rain = 0
KVA1 100645Z 00003KT 01/01 A3037 RMK A01 T00120009  RH  098%=      5-min Rain = 0
KVA1 100646Z 01003KT 01/01 A3037 RMK A01 T00120009  RH  098%=      5-min Rain = 0
KVA1 100647Z 02003KT 01/01 A3037 RMK A01 T00120009  RH  098%=      5-min Rain = 0
KVA1 100648Z 03002KT 01/01 A3037 RMK A01 T00120009  RH  098%=      5-min Rain = 0
KVA1 100649Z 03002KT 01/01 A3037 RMK A01 T00120008  RH  098%=      5-min Rain = 0
KVA1 100650Z 01002KT 01/01 A3037 RMK A01 T00120008  RH  098%=      5-min Rain = 0
KVA1 100651Z 01003KT 01/01 A3037 RMK A01 T00120009  RH  098%=      5-min Rain = 0
KVA1 100652Z 01003KT 01/01 A3037 RMK A01 T00120010  RH  098%=      5-min Rain = 0
KVA1 100653Z 00004KT 01/01 A3037 RMK A01 T00130011  RH  098%=      5-min Rain = 0
KVA1 100654Z 01004KT 01/01 A3037 RMK A01 T00140011  RH  098%=      5-min Rain = 0
KVA1 100655Z 01004KT 01/01 A3037 RMK A01 T00140011  RH  098%=      5-min Rain = 0
KVA1 100656Z 01004KT 01/01 A3037 RMK A01 T00140012  RH  098%=      5-min Rain = 0
KVA1 100657Z 36003KT 02/01 A3037 RMK A01 T00150013  RH  098%=      5-min Rain = 0
KVA1 100658Z 35003KT 02/01 A3037 RMK A01 T00160014  RH  098%=      5-min Rain = 0
KVA1 100659Z 34002KT 02/01 A3037 RMK A01 T00160014  RH  098%=      5-min Rain = 0
KVA1 100700Z 35002KT 02/01 A3037 RMK A01 T00150013  RH  098%=      5-min Rain = 0
KVA1 100701Z 35002KT 01/01 A3037 RMK A01 T00140011  RH  098%=      5-min Rain = 0
KVA1 100702Z 34003KT 01/01 A3037 RMK A01 T00120009  RH  098%=      5-min Rain = 0
KVA1 100703Z 34004KT 01/01 A3037 RMK A01 T00110008  RH  098%=      5-min Rain = 0
KVA1 100704Z 35004KT 01/01 A3037 RMK A01 T00120009  RH  098%=      5-min Rain = 0
KVA1 100705Z 34004KT 01/01 A3037 RMK A01 T00120009  RH  098%=      5-min Rain = 0
KVA1 100706Z 33004KT 01/01 A3037 RMK A01 T00120009  RH  098%=      5-min Rain = 0
KVA1 100707Z 33004KT 01/01 A3037 RMK A01 T00110009  RH  098%=      5-min Rain = 0
KVA1 100708Z 32004KT 01/01 A3037 RMK A01 T00100008  RH  098%=      5-min Rain = 0
KVA1 100709Z 32003KT 01/01 A3037 RMK A01 T00100007  RH  098%=      5-min Rain = 0
KVA1 100710Z 32003KT 01/01 A3037 RMK A01 T00100007  RH  098%=      5-min Rain = 0
KVA1 100711Z 32004KT 01/01 A3037 RMK A01 T00100007  RH  098%=      5-min Rain = 0
KVA1 100712Z 32004KT 01/01 A3037 RMK A01 T00090007  RH  098%=      5-min Rain = 0
KVA1 100713Z 32005KT 01/01 A3037 RMK A01 T00090006  RH  098%=      5-min Rain = 0
KVA1 100714Z 32005KT 01/01 A3037 RMK A01 T00090007  RH  098%=      5-min Rain = 0
KVA1 100715Z 33005KT 01/01 A3037 RMK A01 T00100007  RH  098%=      5-min Rain = 0
KVA1 100716Z 33005KT 01/01 A3037 RMK A01 T00100008  RH  098%=      5-min Rain = 0
KVA1 100717Z 33004KT 01/01 A3037 RMK A01 T00100007  RH  098%=      5-min Rain = 0
KVA1 100718Z 33004KT 01/01 A3037 RMK A01 T00100007  RH  098%=      5-min Rain = 0
KVA1 100719Z 33004KT 01/01 A3037 RMK A01 T00100008  RH  098%=      5-min Rain = 0
KVA1 100720Z 33003KT 01/01 A3037 RMK A01 T00100008  RH  098%=      5-min Rain = 0
KVA1 100721Z 33003KT 01/01 A3037 RMK A01 T00100008  RH  098%=      5-min Rain = 0
KVA1 100722Z 33003KT 01/01 A3037 RMK A01 T00100008  RH  098%=      5-min Rain = 0
KVA1 100723Z 33003KT 01/01 A3037 RMK A01 T00100008  RH  098%=      5-min Rain = 0
KVA1 100724Z 33003KT 01/01 A3037 RMK A01 T00100008  RH  098%=      5-min Rain = 0
KVA1 100725Z 33003KT 01/01 A3037 RMK A01 T00090007  RH  098%=      5-min Rain = 0
KVA1 100726Z 33002KT 01/01 A3037 RMK A01 T00090006  RH  098%=      5-min Rain = 0
KVA1 100727Z 34002KT 01/01 A3037 RMK A01 T00080006  RH  098%=      5-min Rain = 0
KVA1 100728Z 34002KT 01/01 A3037 RMK A01 T00080006  RH  098%=      5-min Rain = 0
KVA1 100729Z 35002KT 01/01 A3036 RMK A01 T00080005  RH  098%=      5-min Rain = 0
KVA1 100730Z 35002KT 01/00 A3036 RMK A01 T00070004  RH  098%=      5-min Rain = 0
KVA1 100731Z 35002KT 01/00 A3036 RMK A01 T00060004  RH  098%=      5-min Rain = 0
KVA1 100732Z 34002KT 01/00 A3036 RMK A01 T00060004  RH  098%=      5-min Rain = 0
KVA1 100733Z 33002KT 01/00 A3036 RMK A01 T00070004  RH  098%=      5-min Rain = 0
KVA1 100734Z 33002KT 01/00 A3036 RMK A01 T00070004  RH  098%=      5-min Rain = 0
KVA1 100735Z 34002KT 01/00 A3036 RMK A01 T00070004  RH  098%=      5-min Rain = 0
KVA1 100736Z 34002KT 01/00 A3036 RMK A01 T00070004  RH  098%=      5-min Rain = 0
KVA1 100737Z 34002KT 01/01 A3036 RMK A01 T00070005  RH  099%=      5-min Rain = 0
KVA1 100738Z 35003KT 01/01 A3036 RMK A01 T00070006  RH  099%=      5-min Rain = 0
KVA1 100739Z 35003KT 01/01 A3036 RMK A01 T00080006  RH  099%=      5-min Rain = 0
KVA1 100740Z 36003KT 01/01 A3036 RMK A01 T00080006  RH  099%=      5-min Rain = 0
KVA1 100741Z 00003KT 01/00 A3036 RMK A01 T00070004  RH  099%=      5-min Rain = 0
KVA1 100742Z 01003KT 01/00 A3036 RMK A01 T00050003  RH  098%=      5-min Rain = 0
KVA1 100743Z 01004KT 01/00 A3036 RMK A01 T00050003  RH  098%=      5-min Rain = 0
KVA1 100744Z 36004KT 00/00 A3036 RMK A01 T00040002  RH  098%=      5-min Rain = 0
KVA1 100745Z 35004KT 00/00 A3036 RMK A01 T00040002  RH  098%=      5-min Rain = 0
KVA1 100746Z 36003KT 00/00 A3036 RMK A01 T00040002  RH  099%=      5-min Rain = 0
KVA1 100747Z 00003KT 01/00 A3036 RMK A01 T00050003  RH  099%=      5-min Rain = 0
KVA1 100748Z 00004KT 01/00 A3036 RMK A01 T00060004  RH  099%=      5-min Rain = 0
KVA1 100749Z 01004KT 01/00 A3036 RMK A01 T00060004  RH  099%=      5-min Rain = 0
KVA1 100750Z 01004KT 01/01 A3036 RMK A01 T00070005  RH  099%=      5-min Rain = 0
KVA1 100751Z 01004KT 01/01 A3036 RMK A01 T00070006  RH  099%=      5-min Rain = 0
KVA1 100752Z 02004KT 01/01 A3036 RMK A01 T00070005  RH  099%=      5-min Rain = 0
KVA1 100753Z 02004KT 01/01 A3037 RMK A01 T00060005  RH  099%=      5-min Rain = 0
KVA1 100754Z 02004KT 01/00 A3037 RMK A01 T00060004  RH  099%=      5-min Rain = 0
KVA1 100755Z 01004KT 01/00 A3037 RMK A01 T00060004  RH  099%=      5-min Rain = 0
KVA1 100756Z 01004KT 01/00 A3037 RMK A01 T00060004  RH  099%=      5-min Rain = 0
KVA1 100757Z 01004KT 01/00 A3037 RMK A01 T00050004  RH  099%=      5-min Rain = 0
KVA1 100758Z 02004KT 01/00 A3037 RMK A01 T00050003  RH  099%=      5-min Rain = 0
KVA1 100759Z 03004KT 01/00 A3037 RMK A01 T00050003  RH  099%=      5-min Rain = 0
KVA1 100800Z 03003KT 01/00 A3037 RMK A01 T00050003  RH  099%=      5-min Rain = 0
KVA1 100801Z 03003KT 00/00 A3037 RMK A01 T00040002  RH  099%=      5-min Rain = 0
KVA1 100802Z 02004KT 00/00 A3037 RMK A01 T00040002  RH  099%=      5-min Rain = 0
KVA1 100803Z 03004KT 00/00 A3037 RMK A01 T00040003  RH  099%=      5-min Rain = 0
KVA1 100804Z 03004KT 00/00 A3037 RMK A01 T00040002  RH  099%=      5-min Rain = 0
KVA1 100805Z 03003KT 00/00 A3037 RMK A01 T00040002  RH  099%=      5-min Rain = 0
KVA1 100806Z 05003KT 00/00 A3037 RMK A01 T00040002  RH  099%=      5-min Rain = 0
KVA1 100807Z 05002KT 00/00 A3037 RMK A01 T00040002  RH  099%=      5-min Rain = 0
KVA1 100808Z 04001KT 00/00 A3037 RMK A01 T00040002  RH  099%=      5-min Rain = 0
KVA1 100809Z 04001KT 00/00 A3037 RMK A01 T00040002  RH  099%=      5-min Rain = 0
KVA1 100810Z 05001KT 00/00 A3037 RMK A01 T00040002  RH  099%=      5-min Rain = 0
KVA1 100811Z 05000KT 00/00 A3037 RMK A01 T00040002  RH  099%=      5-min Rain = 0
KVA1 100812Z 00000KT 00/00 A3037 RMK A01 T00040002  RH  099%=      5-min Rain = 0
KVA1 100813Z 00000KT 00/00 A3037 RMK A01 T00040002  RH  099%=      5-min Rain = 0
KVA1 100814Z 00000KT 00/00 A3037 RMK A01 T00040002  RH  099%=      5-min Rain = 0
KVA1 100815Z 00000KT 00/00 A3037 RMK A01 T00040002  RH  099%=      5-min Rain = 0
KVA1 100816Z 00000KT 00/00 A3037 RMK A01 T00030002  RH  099%=      5-min Rain = 0
KVA1 100817Z 00000KT 00/00 A3037 RMK A01 T00030002  RH  099%=      5-min Rain = 0
KVA1 100818Z 00000KT 00/00 A3037 RMK A01 T00030002  RH  099%=      5-min Rain = 0
KVA1 100819Z 00000KT 00/00 A3037 RMK A01 T00030001  RH  099%=      5-min Rain = 0
KVA1 100820Z 00000KT 00/00 A3037 RMK A01 T00030001  RH  099%=      5-min Rain = 0
KVA1 100821Z 00000KT 00/00 A3037 RMK A01 T00020001  RH  099%=      5-min Rain = 0
KVA1 100822Z 00000KT 00/00 A3037 RMK A01 T00020000  RH  099%=      5-min Rain = 0
KVA1 100823Z 00000KT 00/00 A3037 RMK A01 T00020000  RH  099%=      5-min Rain = 0
KVA1 100824Z 00000KT 00/00 A3037 RMK A01 T00020000  RH  099%=      5-min Rain = 0
KVA1 100825Z 31001KT 00/00 A3037 RMK A01 T00020000  RH  099%=      5-min Rain = 0
KVA1 100826Z 31002KT 00/00 A3037 RMK A01 T000100-0  RH  099%=      5-min Rain = 0
KVA1 100827Z 30003KT 00/00 A3036 RMK A01 T000100-0  RH  099%=      5-min Rain = 0
KVA1 100828Z 30002KT 00/00 A3036 RMK A01 T000100-0  RH  099%=      5-min Rain = 0
KVA1 100829Z 30002KT 00/M00 A3036 RMK A01 T00011001  RH  099%=      5-min Rain = 0
KVA1 100830Z 30001KT 00/M00 A3037 RMK A01 T00011001  RH  099%=      5-min Rain = 0
KVA1 100831Z 33001KT 00/M00 A3037 RMK A01 T00011001  RH  099%=      5-min Rain = 0
KVA1 100832Z 33001KT 00/M00 A3037 RMK A01 T00011001  RH  099%=      5-min Rain = 0
KVA1 100833Z 34001KT 00/00 A3037 RMK A01 T000100-0  RH  099%=      5-min Rain = 0
KVA1 100834Z 34001KT 00/00 A3037 RMK A01 T00020000  RH  099%=      5-min Rain = 0
KVA1 100835Z 31000KT 00/00 A3037 RMK A01 T00020001  RH  099%=      5-min Rain = 0
KVA1 100836Z 28001KT 00/00 A3037 RMK A01 T00030001  RH  099%=      5-min Rain = 0
KVA1 100837Z 27001KT 00/00 A3037 RMK A01 T00030002  RH  099%=      5-min Rain = 0
KVA1 100838Z 27002KT 00/00 A3037 RMK A01 T00030002  RH  099%=      5-min Rain = 0
KVA1 100839Z 27001KT 00/00 A3037 RMK A01 T00030002  RH  099%=      5-min Rain = 0
KVA1 100840Z 27001KT 00/00 A3037 RMK A01 T00040002  RH  099%=      5-min Rain = 0
KVA1 100841Z 27002KT 00/00 A3037 RMK A01 T00040002  RH  099%=      5-min Rain = 0
KVA1 100842Z 27003KT 00/00 A3037 RMK A01 T00040003  RH  099%=      5-min Rain = 0
KVA1 100843Z 26003KT 00/00 A3037 RMK A01 T00040002  RH  099%=      5-min Rain = 0
KVA1 100844Z 26003KT 00/00 A3037 RMK A01 T00040002  RH  099%=      5-min Rain = 0
KVA1 100845Z 26003KT 00/00 A3037 RMK A01 T00040003  RH  099%=      5-min Rain = 0
KVA1 100846Z 27002KT 00/00 A3037 RMK A01 T00040003  RH  099%=      5-min Rain = 0
KVA1 100847Z 27001KT 00/00 A3037 RMK A01 T00040003  RH  099%=      5-min Rain = 0
KVA1 100848Z 30000KT 00/00 A3037 RMK A01 T00040002  RH  099%=      5-min Rain = 0
KVA1 100849Z 00000KT 00/00 A3037 RMK A01 T00040003  RH  099%=      5-min Rain = 0
KVA1 100850Z 00000KT 00/00 A3037 RMK A01 T00040003  RH  099%=      5-min Rain = 0
KVA1 100851Z 36000KT 00/00 A3037 RMK A01 T00040003  RH  099%=      5-min Rain = 0
KVA1 100852Z 35000KT 00/00 A3037 RMK A01 T00040003  RH  099%=      5-min Rain = 0
KVA1 100853Z 35000KT 00/00 A3037 RMK A01 T00040003  RH  099%=      5-min Rain = 0
KVA1 100854Z 00000KT 00/00 A3037 RMK A01 T00040003  RH  099%=      5-min Rain = 0
KVA1 100855Z 00000KT 00/00 A3037 RMK A01 T00040003  RH  099%=      5-min Rain = 0
KVA1 100856Z 36001KT 01/00 A3037 RMK A01 T00050004  RH  099%=      5-min Rain = 0
KVA1 100857Z 33001KT 01/00 A3037 RMK A01 T00050003  RH  099%=      5-min Rain = 0
KVA1 100858Z 30001KT 00/00 A3037 RMK A01 T00040003  RH  099%=      5-min Rain = 0
KVA1 100859Z 28001KT 00/00 A3037 RMK A01 T00040003  RH  099%=      5-min Rain = 0
KVA1 100900Z 26002KT 00/00 A3037 RMK A01 T00040003  RH  099%=      5-min Rain = 0
KVA1 100901Z 25002KT 00/00 A3037 RMK A01 T00040003  RH  099%=      5-min Rain = 0
KVA1 100902Z 25003KT 00/00 A3037 RMK A01 T00040003  RH  099%=      5-min Rain = 0
KVA1 100903Z 25003KT 00/00 A3037 RMK A01 T00040003  RH  099%=      5-min Rain = 0
KVA1 100904Z 26002KT 00/00 A3037 RMK A01 T00040003  RH  099%=      5-min Rain = 0
KVA1 100905Z 26002KT 00/00 A3037 RMK A01 T00040003  RH  099%=      5-min Rain = 0
KVA1 100906Z 27002KT 00/00 A3037 RMK A01 T00030002  RH  099%=      5-min Rain = 0
KVA1 100907Z 27002KT 00/00 A3037 RMK A01 T00030002  RH  099%=      5-min Rain = 0
KVA1 100908Z 29002KT 00/00 A3037 RMK A01 T00030002  RH  099%=      5-min Rain = 0
KVA1 100909Z 30003KT 00/00 A3037 RMK A01 T00030002  RH  099%=      5-min Rain = 0
KVA1 100910Z 30003KT 00/00 A3037 RMK A01 T00030002  RH  099%=      5-min Rain = 0
KVA1 100911Z 29003KT 00/00 A3037 RMK A01 T00030002  RH  099%=      5-min Rain = 0
KVA1 100912Z 28004KT 00/00 A3037 RMK A01 T00030002  RH  099%=      5-min Rain = 0
KVA1 100913Z 28004KT 00/00 A3037 RMK A01 T00030002  RH  099%=      5-min Rain = 0
KVA1 100914Z 27004KT 00/00 A3036 RMK A01 T00020001  RH  099%=      5-min Rain = 0
KVA1 100915Z 28004KT 00/00 A3036 RMK A01 T00020001  RH  099%=      5-min Rain = 0
KVA1 100916Z 28004KT 00/00 A3036 RMK A01 T00020001  RH  099%=      5-min Rain = 0
KVA1 100917Z 28004KT 00/00 A3037 RMK A01 T00020001  RH  099%=      5-min Rain = 0
KVA1 100918Z 29003KT 00/00 A3037 RMK A01 T00020001  RH  099%=      5-min Rain = 0
KVA1 100919Z 30002KT 00/00 A3037 RMK A01 T00020001  RH  099%=      5-min Rain = 0
KVA1 100920Z 31002KT 00/00 A3037 RMK A01 T00020001  RH  099%=      5-min Rain = 0
KVA1 100921Z 30002KT 00/00 A3036 RMK A01 T00020001  RH  099%=      5-min Rain = 0
KVA1 100922Z 29002KT 00/00 A3036 RMK A01 T00020001  RH  099%=      5-min Rain = 0
KVA1 100923Z 29003KT 00/00 A3036 RMK A01 T00020001  RH  099%=      5-min Rain = 0
KVA1 100924Z 28003KT 00/00 A3036 RMK A01 T00010000  RH  099%=      5-min Rain = 0
KVA1 100925Z 28003KT 00/00 A3036 RMK A01 T00010000  RH  099%=      5-min Rain = 0
KVA1 100926Z 29003KT 00/00 A3036 RMK A01 T00010000  RH  099%=      5-min Rain = 0
KVA1 100927Z 29003KT 00/00 A3036 RMK A01 T000100-0  RH  099%=      5-min Rain = 0
KVA1 100928Z 30003KT 00/00 A3036 RMK A01 T000100-0  RH  099%=      5-min Rain = 0
KVA1 100929Z 29002KT 00/00 A3036 RMK A01 T000100-0  RH  099%=      5-min Rain = 0
KVA1 100930Z 29002KT 00/00 A3036 RMK A01 T000000-1  RH  099%=      5-min Rain = 0
KVA1 100931Z 29003KT 00/00 A3036 RMK A01 T000000-1  RH  099%=      5-min Rain = 0
KVA1 100932Z 29003KT 00/00 A3036 RMK A01 T00-000-1  RH  099%=      5-min Rain = 0
KVA1 100933Z 28003KT 00/00 A3036 RMK A01 T00-000-1  RH  099%=      5-min Rain = 0
KVA1 100934Z 28003KT 00/00 A3036 RMK A01 T00-000-1  RH  099%=      5-min Rain = 0
KVA1 100935Z 28003KT 00/00 A3036 RMK A01 T00-000-1  RH  099%=      5-min Rain = 0
KVA1 100936Z 30004KT 00/00 A3036 RMK A01 T00-000-1  RH  099%=      5-min Rain = 0
KVA1 100937Z 31004KT M00/M00 A3036 RMK A01 T10011001  RH  099%=      5-min Rain = 0
KVA1 100938Z 32004KT 00/00 A3036 RMK A01 T00-000-1  RH  099%=      5-min Rain = 0
KVA1 100939Z 32004KT 00/00 A3036 RMK A01 T00-000-1  RH  099%=      5-min Rain = 0
KVA1 100940Z 31003KT 00/00 A3036 RMK A01 T00-000-1  RH  099%=      5-min Rain = 0
KVA1 100941Z 30003KT 00/00 A3036 RMK A01 T00-000-1  RH  099%=      5-min Rain = 0
KVA1 100942Z 30004KT 00/00 A3036 RMK A01 T00-000-1  RH  100%=      5-min Rain = 0
KVA1 100943Z 30004KT 00/00 A3036 RMK A01 T00-000-1  RH  100%=      5-min Rain = 0
KVA1 100944Z 30004KT 00/00 A3036 RMK A01 T00-000-1  RH  099%=      5-min Rain = 0
KVA1 100945Z 30004KT 00/00 A3036 RMK A01 T00-000-1  RH  099%=      5-min Rain = 0
KVA1 100946Z 30004KT M00/M00 A3036 RMK A01 T10011001  RH  100%=      5-min Rain = 0
KVA1 100947Z 31004KT M00/M00 A3036 RMK A01 T10011001  RH  100%=      5-min Rain = 0
KVA1 100948Z 30004KT M00/M00 A3036 RMK A01 T10011001  RH  100%=      5-min Rain = 0
KVA1 100949Z 30004KT M00/M00 A3036 RMK A01 T10011002  RH  100%=      5-min Rain = 0
KVA1 100950Z 29004KT M00/M00 A3036 RMK A01 T10011002  RH  100%=      5-min Rain = 0
KVA1 100951Z 30004KT M00/M00 A3036 RMK A01 T10011002  RH  100%=      5-min Rain = 0
KVA1 100952Z 30004KT M00/M00 A3036 RMK A01 T10011002  RH  100%=      5-min Rain = 0
KVA1 100953Z 30003KT M00/M00 A3036 RMK A01 T10011001  RH  100%=      5-min Rain = 0
KVA1 100954Z 30004KT M00/M00 A3036 RMK A01 T10011001  RH  100%=      5-min Rain = 0
KVA1 100955Z 30004KT M00/M00 A3036 RMK A01 T10011002  RH  100%=      5-min Rain = 0
KVA1 100956Z 30004KT M00/M00 A3036 RMK A01 T10011002  RH  100%=      5-min Rain = 0
KVA1 100957Z 29004KT M00/M00 A3036 RMK A01 T10011002  RH  100%=      5-min Rain = 0
KVA1 100958Z 29004KT M00/M00 A3036 RMK A01 T10011002  RH  100%=      5-min Rain = 0
KVA1 100959Z 30004KT M00/M00 A3036 RMK A01 T10011002  RH  100%=      5-min Rain = 0
KVA1 101000Z 30003KT M00/M00 A3036 RMK A01 T10011002  RH  100%=      5-min Rain = 0
KVA1 101001Z 30003KT M00/M00 A3036 RMK A01 T10011002  RH  100%=      5-min Rain = 0
KVA1 101002Z 30002KT M00/M00 A3036 RMK A01 T10011002  RH  100%=      5-min Rain = 0
KVA1 101003Z 30003KT M00/M00 A3036 RMK A01 T10011002  RH  100%=      5-min Rain = 0
KVA1 101004Z 30003KT M00/M00 A3036 RMK A01 T10011001  RH  100%=      5-min Rain = 0
KVA1 101005Z 30003KT M00/M00 A3036 RMK A01 T10011001  RH  100%=      5-min Rain = 0
KVA1 101006Z 29004KT M00/M00 A3036 RMK A01 T10011001  RH  100%=      5-min Rain = 0
KVA1 101007Z 28004KT M00/M00 A3036 RMK A01 T10011001  RH  100%=      5-min Rain = 0
KVA1 101008Z 28004KT 00/00 A3036 RMK A01 T00-000-1  RH  100%=      5-min Rain = 0
KVA1 101009Z 28004KT 00/00 A3036 RMK A01 T00-000-1  RH  100%=      5-min Rain = 0
KVA1 101010Z 29003KT 00/00 A3036 RMK A01 T000000-0  RH  100%=      5-min Rain = 0
KVA1 101011Z 31003KT 00/00 A3036 RMK A01 T00-000-1  RH  100%=      5-min Rain = 0
KVA1 101012Z 33002KT 00/00 A3036 RMK A01 T000000-0  RH  100%=      5-min Rain = 0
KVA1 101013Z 34002KT 00/00 A3036 RMK A01 T00-000-1  RH  100%=      5-min Rain = 0
KVA1 101014Z 34002KT M00/M00 A3036 RMK A01 T10011001  RH  100%=      5-min Rain = 0
KVA1 101015Z 33002KT M00/M00 A3036 RMK A01 T10011002  RH  100%=      5-min Rain = 0
KVA1 101016Z 30001KT M00/M00 A3036 RMK A01 T10011002  RH  100%=      5-min Rain = 0
KVA1 101017Z 24001KT M00/M00 A3036 RMK A01 T10011002  RH  100%=      5-min Rain = 0
KVA1 101018Z 23002KT M00/M00 A3036 RMK A01 T10011002  RH  100%=      5-min Rain = 0
KVA1 101019Z 23002KT M00/M00 A3036 RMK A01 T10011002  RH  100%=      5-min Rain = 0
KVA1 101020Z 24002KT M00/M00 A3036 RMK A01 T10011001  RH  100%=      5-min Rain = 0
KVA1 101021Z 23002KT M00/M00 A3036 RMK A01 T10011001  RH  100%=      5-min Rain = 0
KVA1 101022Z 20002KT M00/M00 A3036 RMK A01 T10011001  RH  100%=      5-min Rain = 0
KVA1 101023Z 18001KT M00/M00 A3036 RMK A01 T10011002  RH  100%=      5-min Rain = 0
KVA1 101024Z 20001KT M00/M00 A3036 RMK A01 T10021003  RH  100%=      5-min Rain = 0
KVA1 101025Z 20000KT M00/M00 A3036 RMK A01 T10031003  RH  100%=      5-min Rain = 0
KVA1 101026Z 20000KT M00/M00 A3036 RMK A01 T10031004  RH  100%=      5-min Rain = 0
KVA1 101027Z 18001KT M00/M01 A3036 RMK A01 T10041005  RH  100%=      5-min Rain = 0
KVA1 101028Z 18002KT M01/M01 A3036 RMK A01 T10051006  RH  100%=      5-min Rain = 0
KVA1 101029Z 18001KT M01/M01 A3036 RMK A01 T10051006  RH  100%=      5-min Rain = 0
KVA1 101030Z 20000KT M01/M01 A3036 RMK A01 T10061006  RH  100%=      5-min Rain = 0
KVA1 101031Z 00000KT M01/M01 A3036 RMK A01 T10061007  RH  100%=      5-min Rain = 0
KVA1 101032Z 00000KT M01/M01 A3036 RMK A01 T10061007  RH  100%=      5-min Rain = 0
KVA1 101033Z 00000KT M01/M01 A3036 RMK A01 T10061007  RH  100%=      5-min Rain = 0
KVA1 101034Z 00000KT M01/M01 A3036 RMK A01 T10071007  RH  100%=      5-min Rain = 0
KVA1 101035Z 00000KT M01/M01 A3036 RMK A01 T10071008  RH  100%=      5-min Rain = 0
KVA1 101036Z 00000KT M01/M01 A3036 RMK A01 T10071008  RH  100%=      5-min Rain = 0
KVA1 101037Z 00000KT M01/M01 A3036 RMK A01 T10081008  RH  100%=      5-min Rain = 0
KVA1 101038Z 00000KT M01/M01 A3036 RMK A01 T10081009  RH  100%=      5-min Rain = 0
KVA1 101039Z 07001KT M01/M01 A3036 RMK A01 T10081009  RH  100%=      5-min Rain = 0
KVA1 101040Z 06001KT M01/M01 A3036 RMK A01 T10081009  RH  100%=      5-min Rain = 0
KVA1 101041Z 06001KT M01/M01 A3036 RMK A01 T10091009  RH  100%=      5-min Rain = 0
KVA1 101042Z 06001KT M01/M01 A3036 RMK A01 T10091010  RH  100%=      5-min Rain = 0
KVA1 101043Z 08001KT M01/M01 A3036 RMK A01 T10091010  RH  100%=      5-min Rain = 0
KVA1 101044Z 07001KT M01/M01 A3036 RMK A01 T10091010  RH  100%=      5-min Rain = 0
KVA1 101045Z 03002KT M01/M01 A3036 RMK A01 T10091010  RH  100%=      5-min Rain = 0
KVA1 101046Z 03002KT M01/M01 A3036 RMK A01 T10091010  RH  100%=      5-min Rain = 0
KVA1 101047Z 02002KT M01/M01 A3036 RMK A01 T10091009  RH  100%=      5-min Rain = 0
KVA1 101048Z 02003KT M01/M01 A3036 RMK A01 T10081008  RH  100%=      5-min Rain = 0
KVA1 101049Z 01003KT M01/M01 A3036 RMK A01 T10071007  RH  100%=      5-min Rain = 0
KVA1 101050Z 01004KT M01/M01 A3036 RMK A01 T10051006  RH  100%=      5-min Rain = 0
KVA1 101051Z 01004KT M00/M00 A3036 RMK A01 T10041004  RH  100%=      5-min Rain = 0
KVA1 101052Z 02003KT M00/M00 A3036 RMK A01 T10021002  RH  100%=      5-min Rain = 0
KVA1 101053Z 03002KT M00/M00 A3036 RMK A01 T10011001  RH  100%=      5-min Rain = 0
KVA1 101054Z 03002KT 00/00 A3036 RMK A01 T00-000-1  RH  100%=      5-min Rain = 0
KVA1 101055Z 04001KT 00/00 A3036 RMK A01 T00-000-0  RH  100%=      5-min Rain = 0
KVA1 101056Z 03002KT 00/00 A3036 RMK A01 T00000000  RH  100%=      5-min Rain = 0
KVA1 101057Z 03002KT 00/00 A3036 RMK A01 T00010001  RH  100%=      5-min Rain = 0
KVA1 101058Z 02002KT 00/00 A3036 RMK A01 T00010001  RH  100%=      5-min Rain = 0
KVA1 101059Z 03001KT 00/00 A3036 RMK A01 T00010001  RH  100%=      5-min Rain = 0
KVA1 101100Z 02002KT 00/00 A3036 RMK A01 T00020002  RH  100%=      5-min Rain = 0
KVA1 101101Z 02003KT 00/00 A3036 RMK A01 T00020002  RH  100%=      5-min Rain = 0
KVA1 101102Z 02003KT 00/00 A3036 RMK A01 T00020002  RH  100%=      5-min Rain = 0
KVA1 101103Z 01002KT 00/00 A3036 RMK A01 T00020002  RH  100%=      5-min Rain = 0
KVA1 101104Z 36001KT 00/00 A3036 RMK A01 T00010001  RH  100%=      5-min Rain = 0
KVA1 101105Z 33001KT 00/00 A3036 RMK A01 T00020001  RH  100%=      5-min Rain = 0
KVA1 101106Z 34001KT 00/00 A3036 RMK A01 T00010001  RH  100%=      5-min Rain = 0
KVA1 101107Z 36001KT 00/00 A3036 RMK A01 T00010000  RH  100%=      5-min Rain = 0
KVA1 101108Z 00002KT 00/00 A3036 RMK A01 T00010000  RH  100%=      5-min Rain = 0
KVA1 101109Z 02003KT 00/00 A3036 RMK A01 T00010000  RH  100%=      5-min Rain = 0
KVA1 101110Z 03003KT 00/00 A3036 RMK A01 T00010000  RH  100%=      5-min Rain = 0
KVA1 101111Z 02002KT 00/00 A3036 RMK A01 T00000000  RH  100%=      5-min Rain = 0
KVA1 101112Z 00002KT 00/00 A3035 RMK A01 T00010000  RH  100%=      5-min Rain = 0
KVA1 101113Z 35001KT 00/00 A3035 RMK A01 T00010000  RH  100%=      5-min Rain = 0
KVA1 101114Z 35001KT 00/00 A3035 RMK A01 T000000-0  RH  100%=      5-min Rain = 0
KVA1 101115Z 35002KT 00/00 A3036 RMK A01 T000000-0  RH  100%=      5-min Rain = 0
KVA1 101116Z 01002KT 00/00 A3036 RMK A01 T00-000-1  RH  100%=      5-min Rain = 0
KVA1 101117Z 02002KT M00/M00 A3036 RMK A01 T10011001  RH  100%=      5-min Rain = 0
KVA1 101118Z 01002KT M00/M00 A3036 RMK A01 T10011001  RH  100%=      5-min Rain = 0
KVA1 101119Z 00001KT M00/M00 A3036 RMK A01 T10011002  RH  100%=      5-min Rain = 0
KVA1 101120Z 33001KT M00/M00 A3036 RMK A01 T10011002  RH  100%=      5-min Rain = 0
KVA1 101121Z 32000KT M00/M00 A3036 RMK A01 T10021002  RH  100%=      5-min Rain = 0
KVA1 101122Z 34001KT M00/M00 A3036 RMK A01 T10021002  RH  100%=      5-min Rain = 0
KVA1 101123Z 36001KT M00/M00 A3036 RMK A01 T10021003  RH  100%=      5-min Rain = 0
KVA1 101124Z 33001KT M00/M00 A3036 RMK A01 T10021003  RH  100%=      5-min Rain = 0
KVA1 101125Z 32001KT M00/M00 A3036 RMK A01 T10031003  RH  100%=      5-min Rain = 0
KVA1 101126Z 33001KT M00/M00 A3036 RMK A01 T10031004  RH  100%=      5-min Rain = 0
KVA1 101127Z 32002KT M00/M00 A3036 RMK A01 T10031004  RH  100%=      5-min Rain = 0
KVA1 101128Z 31002KT M00/M00 A3036 RMK A01 T10031004  RH  100%=      5-min Rain = 0
KVA1 101129Z 33001KT M00/M00 A3036 RMK A01 T10031004  RH  100%=      5-min Rain = 0
KVA1 101130Z 32001KT M00/M00 A3036 RMK A01 T10041004  RH  100%=      5-min Rain = 0
KVA1 101131Z 31002KT M00/M00 A3036 RMK A01 T10041004  RH  100%=      5-min Rain = 0
KVA1 101132Z 32002KT M00/M00 A3036 RMK A01 T10041004  RH  100%=      5-min Rain = 0
KVA1 101133Z 32002KT M00/M00 A3036 RMK A01 T10041004  RH  100%=      5-min Rain = 0
KVA1 101134Z 31002KT M00/M00 A3036 RMK A01 T10041004  RH  100%=      5-min Rain = 0
KVA1 101135Z 30001KT M00/M00 A3036 RMK A01 T10041004  RH  100%=      5-min Rain = 0
KVA1 101136Z 29002KT M00/M00 A3036 RMK A01 T10041004  RH  100%=      5-min Rain = 0
KVA1 101137Z 29002KT M00/M00 A3036 RMK A01 T10041004  RH  100%=      5-min Rain = 0
KVA1 101138Z 30002KT M00/M00 A3036 RMK A01 T10041004  RH  100%=      5-min Rain = 0
KVA1 101139Z 31001KT M00/M00 A3036 RMK A01 T10041004  RH  100%=      5-min Rain = 0
KVA1 101140Z 31001KT M00/M00 A3037 RMK A01 T10031004  RH  100%=      5-min Rain = 0
KVA1 101141Z 31001KT M00/M00 A3037 RMK A01 T10031003  RH  100%=      5-min Rain = 0
KVA1 101142Z 29001KT M00/M00 A3037 RMK A01 T10031003  RH  100%=      5-min Rain = 0
KVA1 101143Z 28001KT M00/M00 A3037 RMK A01 T10031003  RH  100%=      5-min Rain = 0
KVA1 101144Z 26002KT M00/M00 A3037 RMK A01 T10031003  RH  100%=      5-min Rain = 0
KVA1 101145Z 26003KT M00/M00 A3037 RMK A01 T10021003  RH  100%=      5-min Rain = 0
KVA1 101146Z 26003KT M00/M00 A3036 RMK A01 T10021002  RH  100%=      5-min Rain = 0
KVA1 101147Z 26003KT M00/M00 A3037 RMK A01 T10021003  RH  100%=      5-min Rain = 0
KVA1 101148Z 27002KT M00/M00 A3037 RMK A01 T10031003  RH  100%=      5-min Rain = 0
KVA1 101149Z 28001KT M00/M00 A3037 RMK A01 T10031003  RH  100%=      5-min Rain = 0
KVA1 101150Z 28001KT M00/M00 A3037 RMK A01 T10021003  RH  100%=      5-min Rain = 0
KVA1 101151Z 29002KT M00/M00 A3037 RMK A01 T10031003  RH  100%=      5-min Rain = 0
KVA1 101152Z 28002KT M00/M00 A3037 RMK A01 T10031004  RH  100%=      5-min Rain = 0
KVA1 101153Z 28002KT M00/M00 A3037 RMK A01 T10041004  RH  100%=      5-min Rain = 0
KVA1 101154Z 28002KT M00/M00 A3037 RMK A01 T10041004  RH  100%=      5-min Rain = 0
KVA1 101155Z 28002KT M00/M00 A3037 RMK A01 T10041004  RH  100%=      5-min Rain = 0
KVA1 101156Z 28002KT M00/M00 A3037 RMK A01 T10041004  RH  100%=      5-min Rain = 0
KVA1 101157Z 28002KT M00/M00 A3037 RMK A01 T10041004  RH  100%=      5-min Rain = 0
KVA1 101158Z 28002KT M00/M00 A3037 RMK A01 T10041004  RH  100%=      5-min Rain = 0
KVA1 101159Z 28002KT M00/M01 A3037 RMK A01 T10041005  RH  100%=      5-min Rain = 0
KVA1 101200Z 27002KT M00/M01 A3037 RMK A01 T10041005  RH  100%=      5-min Rain = 0
KVA1 101201Z 27002KT M01/M01 A3037 RMK A01 T10051005  RH  100%=      5-min Rain = 0
KVA1 101202Z 27002KT M00/M01 A3037 RMK A01 T10041005  RH  100%=      5-min Rain = 0
KVA1 101203Z 28002KT M00/M01 A3037 RMK A01 T10041005  RH  100%=      5-min Rain = 0
KVA1 101204Z 28001KT M01/M01 A3037 RMK A01 T10051005  RH  100%=      5-min Rain = 0
KVA1 101205Z 27001KT M01/M01 A3037 RMK A01 T10051005  RH  100%=      5-min Rain = 0
KVA1 101206Z 27001KT M01/M01 A3037 RMK A01 T10051005  RH  100%=      5-min Rain = 0
KVA1 101207Z 27001KT M01/M01 A3037 RMK A01 T10051005  RH  100%=      5-min Rain = 0
KVA1 101208Z 26002KT M01/M01 A3037 RMK A01 T10051006  RH  100%=      5-min Rain = 0
KVA1 101209Z 26002KT M01/M01 A3037 RMK A01 T10051005  RH  100%=      5-min Rain = 0
KVA1 101210Z 26002KT M01/M01 A3037 RMK A01 T10051006  RH  100%=      5-min Rain = 0
KVA1 101211Z 25001KT M01/M01 A3037 RMK A01 T10051006  RH  100%=      5-min Rain = 0
KVA1 101212Z 26001KT M01/M01 A3037 RMK A01 T10051005  RH  100%=      5-min Rain = 0
KVA1 101213Z 24001KT M01/M01 A3038 RMK A01 T10051006  RH  100%=      5-min Rain = 0
KVA1 101214Z 00000KT M01/M01 A3038 RMK A01 T10051006  RH  100%=      5-min Rain = 0
KVA1 101215Z 00000KT M01/M01 A3038 RMK A01 T10061006  RH  100%=      5-min Rain = 0
KVA1 101216Z 25001KT M01/M01 A3038 RMK A01 T10061006  RH  100%=      5-min Rain = 0
KVA1 101217Z 25002KT M01/M01 A3038 RMK A01 T10061006  RH  100%=      5-min Rain = 0
KVA1 101218Z 25002KT M01/M01 A3037 RMK A01 T10061006  RH  100%=      5-min Rain = 0
KVA1 101219Z 25002KT M01/M01 A3037 RMK A01 T10061006  RH  100%=      5-min Rain = 0
KVA1 101220Z 25002KT M01/M01 A3037 RMK A01 T10061006  RH  100%=      5-min Rain = 0
KVA1 101221Z 25002KT M01/M01 A3037 RMK A01 T10061006  RH  100%=      5-min Rain = 0
KVA1 101222Z 25002KT M01/M01 A3037 RMK A01 T10061006  RH  100%=      5-min Rain = 0
KVA1 101223Z 24002KT M01/M01 A3037 RMK A01 T10061006  RH  100%=      5-min Rain = 0
KVA1 101224Z 25001KT M01/M01 A3037 RMK A01 T10051006  RH  100%=      5-min Rain = 0
KVA1 101225Z 25002KT M01/M01 A3037 RMK A01 T10051005  RH  100%=      5-min Rain = 0
KVA1 101226Z 26001KT M01/M01 A3037 RMK A01 T10051005  RH  100%=      5-min Rain = 0
KVA1 101227Z 26001KT M01/M01 A3037 RMK A01 T10051005  RH  100%=      5-min Rain = 0
KVA1 101228Z 27001KT M01/M01 A3037 RMK A01 T10051005  RH  100%=      5-min Rain = 0
KVA1 101229Z 27001KT M01/M01 A3037 RMK A01 T10051005  RH  100%=      5-min Rain = 0
KVA1 101230Z 27002KT M01/M01 A3037 RMK A01 T10051005  RH  100%=      5-min Rain = 0
KVA1 101231Z 27002KT M01/M01 A3037 RMK A01 T10051005  RH  100%=      5-min Rain = 0
KVA1 101232Z 26002KT M01/M01 A3037 RMK A01 T10051005  RH  100%=      5-min Rain = 0
KVA1 101233Z 26002KT M01/M01 A3037 RMK A01 T10051005  RH  100%=      5-min Rain = 0
KVA1 101234Z 26002KT M01/M01 A3037 RMK A01 T10051005  RH  100%=      5-min Rain = 0
KVA1 101235Z 26002KT M01/M01 A3037 RMK A01 T10051005  RH  100%=      5-min Rain = 0
KVA1 101236Z 26001KT M01/M01 A3037 RMK A01 T10051005  RH  100%=      5-min Rain = 0
KVA1 101237Z 26001KT M01/M01 A3037 RMK A01 T10051005  RH  100%=      5-min Rain = 0
KVA1 101238Z 26001KT M01/M01 A3037 RMK A01 T10061006  RH  100%=      5-min Rain = 0
KVA1 101239Z 26001KT M01/M01 A3037 RMK A01 T10051005  RH  100%=      5-min Rain = 0
KVA1 101240Z 25002KT M01/M01 A3037 RMK A01 T10061006  RH  100%=      5-min Rain = 0
KVA1 101241Z 23002KT M01/M01 A3037 RMK A01 T10061006  RH  100%=      5-min Rain = 0
KVA1 101242Z 23002KT M01/M01 A3037 RMK A01 T10061006  RH  100%=      5-min Rain = 0
KVA1 101243Z 23002KT M01/M01 A3037 RMK A01 T10061006  RH  100%=      5-min Rain = 0
KVA1 101244Z 22002KT M01/M01 A3037 RMK A01 T10051006  RH  100%=      5-min Rain = 0
KVA1 101245Z 21002KT M01/M01 A3037 RMK A01 T10061006  RH  100%=      5-min Rain = 0
KVA1 101246Z 21002KT M01/M01 A3037 RMK A01 T10061007  RH  100%=      5-min Rain = 0
KVA1 101247Z 21003KT M01/M01 A3037 RMK A01 T10061007  RH  100%=      5-min Rain = 0
KVA1 101248Z 20003KT M01/M01 A3037 RMK A01 T10071007  RH  100%=      5-min Rain = 0
KVA1 101249Z 21003KT M01/M01 A3037 RMK A01 T10071007  RH  100%=      5-min Rain = 0
KVA1 101250Z 21003KT M01/M01 A3038 RMK A01 T10071008  RH  100%=      5-min Rain = 0
KVA1 101251Z 20003KT M01/M01 A3038 RMK A01 T10081008  RH  100%=      5-min Rain = 0
KVA1 101252Z 20002KT M01/M01 A3038 RMK A01 T10081008  RH  100%=      5-min Rain = 0
KVA1 101253Z 20002KT M01/M01 A3038 RMK A01 T10081008  RH  100%=      5-min Rain = 0
KVA1 101254Z 20003KT M01/M01 A3038 RMK A01 T10091009  RH  100%=      5-min Rain = 0
KVA1 101255Z 20002KT M01/M01 A3038 RMK A01 T10091009  RH  100%=      5-min Rain = 0
KVA1 101256Z 21003KT M01/M01 A3038 RMK A01 T10091009  RH  100%=      5-min Rain = 0
KVA1 101257Z 20003KT M01/M01 A3038 RMK A01 T10091009  RH  100%=      5-min Rain = 0
KVA1 101258Z 21003KT M01/M01 A3038 RMK A01 T10091009  RH  100%=      5-min Rain = 0
KVA1 101259Z 20004KT M01/M01 A3038 RMK A01 T10091009  RH  100%=      5-min Rain = 0
KVA1 101300Z 20004KT M01/M01 A3038 RMK A01 T10101010  RH  100%=      5-min Rain = 0
KVA1 101301Z 21004KT M01/M01 A3038 RMK A01 T10101010  RH  100%=      5-min Rain = 0
KVA1 101302Z 21004KT M01/M01 A3038 RMK A01 T10111011  RH  100%=      5-min Rain = 0
KVA1 101303Z 21003KT M01/M01 A3038 RMK A01 T10121012  RH  100%=      5-min Rain = 0
KVA1 101304Z 22004KT M01/M01 A3038 RMK A01 T10121012  RH  100%=      5-min Rain = 0
KVA1 101305Z 22004KT M01/M01 A3038 RMK A01 T10131013  RH  100%=      5-min Rain = 0
KVA1 101306Z 22004KT M01/M01 A3038 RMK A01 T10131013  RH  100%=      5-min Rain = 0
KVA1 101307Z 23005KT M01/M01 A3038 RMK A01 T10131013  RH  100%=      5-min Rain = 0
KVA1 101308Z 23004KT M01/M01 A3038 RMK A01 T10131013  RH  100%=      5-min Rain = 0
KVA1 101309Z 23004KT M01/M01 A3038 RMK A01 T10131013  RH  100%=      5-min Rain = 0
KVA1 101310Z 23004KT M01/M01 A3038 RMK A01 T10131013  RH  100%=      5-min Rain = 0
KVA1 101311Z 23004KT M01/M01 A3038 RMK A01 T10131013  RH  100%=      5-min Rain = 0
KVA1 101312Z 23004KT M01/M01 A3038 RMK A01 T10131013  RH  100%=      5-min Rain = 0
KVA1 101313Z 22003KT M01/M01 A3038 RMK A01 T10131013  RH  100%=      5-min Rain = 0
KVA1 101314Z 23004KT M01/M01 A3038 RMK A01 T10131013  RH  100%=      5-min Rain = 0
KVA1 101315Z 23004KT M01/M01 A3038 RMK A01 T10131013  RH  100%=      5-min Rain = 0
KVA1 101316Z 23004KT M01/M01 A3038 RMK A01 T10121013  RH  100%=      5-min Rain = 0
KVA1 101317Z 23003KT M01/M01 A3038 RMK A01 T10131013  RH  100%=      5-min Rain = 0
KVA1 101318Z 23003KT M01/M01 A3038 RMK A01 T10131013  RH  100%=      5-min Rain = 0
KVA1 101319Z 23004KT M01/M01 A3038 RMK A01 T10131013  RH  100%=      5-min Rain = 0
KVA1 101320Z 23004KT M01/M01 A3038 RMK A01 T10131013  RH  100%=      5-min Rain = 0
KVA1 101321Z 23004KT M01/M01 A3038 RMK A01 T10131013  RH  100%=      5-min Rain = 0
KVA1 101322Z 23005KT M01/M01 A3038 RMK A01 T10131013  RH  100%=      5-min Rain = 0
KVA1 101323Z 23004KT M01/M01 A3038 RMK A01 T10131013  RH  100%=      5-min Rain = 0
KVA1 101324Z 24004KT M01/M01 A3038 RMK A01 T10131013  RH  100%=      5-min Rain = 0
KVA1 101325Z 24004KT M01/M01 A3038 RMK A01 T10131013  RH  100%=      5-min Rain = 0
KVA1 101326Z 24004KT M01/M01 A3039 RMK A01 T10121012  RH  100%=      5-min Rain = 0
KVA1 101327Z 24003KT M01/M01 A3039 RMK A01 T10131013  RH  100%=      5-min Rain = 0
KVA1 101328Z 24003KT M01/M01 A3039 RMK A01 T10121012  RH  100%=      5-min Rain = 0
KVA1 101329Z 24003KT M01/M01 A3039 RMK A01 T10121012  RH  100%=      5-min Rain = 0
KVA1 101330Z 24004KT M01/M01 A3039 RMK A01 T10121012  RH  100%=      5-min Rain = 0
KVA1 101331Z 24004KT M01/M01 A3039 RMK A01 T10121012  RH  100%=      5-min Rain = 0
KVA1 101332Z 24004KT M01/M01 A3039 RMK A01 T10111012  RH  100%=      5-min Rain = 0
KVA1 101333Z 24005KT M01/M01 A3039 RMK A01 T10111011  RH  100%=      5-min Rain = 0
KVA1 101334Z 25005KT M01/M01 A3039 RMK A01 T10111011  RH  100%=      5-min Rain = 0
KVA1 101335Z 24005KT M01/M01 A3039 RMK A01 T10101010  RH  100%=      5-min Rain = 0
KVA1 101336Z 24004KT M01/M01 A3039 RMK A01 T10091009  RH  100%=      5-min Rain = 0
KVA1 101337Z 24003KT M01/M01 A3039 RMK A01 T10091009  RH  100%=      5-min Rain = 0
KVA1 101338Z 23004KT M01/M01 A3039 RMK A01 T10081009  RH  100%=      5-min Rain = 0
KVA1 101339Z 23004KT M01/M01 A3039 RMK A01 T10091009  RH  100%=      5-min Rain = 0
KVA1 101340Z 23003KT M01/M01 A3039 RMK A01 T10081008  RH  100%=      5-min Rain = 0
KVA1 101341Z 23003KT M01/M01 A3039 RMK A01 T10081008  RH  100%=      5-min Rain = 0
KVA1 101342Z 22002KT M01/M01 A3039 RMK A01 T10081008  RH  100%=      5-min Rain = 0
KVA1 101343Z 20002KT M01/M01 A3039 RMK A01 T10081008  RH  100%=      5-min Rain = 0
KVA1 101344Z 19002KT M01/M01 A3039 RMK A01 T10091009  RH  100%=      5-min Rain = 0
KVA1 101345Z 18003KT M01/M01 A3039 RMK A01 T10091010  RH  100%=      5-min Rain = 0
KVA1 101346Z 18002KT M01/M01 A3039 RMK A01 T10091010  RH  100%=      5-min Rain = 0
KVA1 101347Z 19002KT M01/M01 A3039 RMK A01 T10101010  RH  100%=      5-min Rain = 0
KVA1 101348Z 18001KT M01/M01 A3039 RMK A01 T10101010  RH  100%=      5-min Rain = 0
KVA1 101349Z 17001KT M01/M01 A3039 RMK A01 T10101010  RH  100%=      5-min Rain = 0
KVA1 101350Z 15002KT M01/M01 A3039 RMK A01 T10101010  RH  100%=      5-min Rain = 0
KVA1 101351Z 15001KT M01/M01 A3039 RMK A01 T10101011  RH  100%=      5-min Rain = 0
KVA1 101352Z 16001KT M01/M01 A3039 RMK A01 T10111011  RH  100%=      5-min Rain = 0
KVA1 101353Z 16001KT M01/M01 A3039 RMK A01 T10111011  RH  100%=      5-min Rain = 0
KVA1 101354Z 17001KT M01/M01 A3039 RMK A01 T10111012  RH  100%=      5-min Rain = 0
KVA1 101355Z 17002KT M01/M01 A3039 RMK A01 T10121012  RH  100%=      5-min Rain = 0
KVA1 101356Z 16002KT M01/M01 A3039 RMK A01 T10121012  RH  100%=      5-min Rain = 0
KVA1 101357Z 16002KT M01/M01 A3039 RMK A01 T10121012  RH  100%=      5-min Rain = 0
KVA1 101358Z 17002KT M01/M01 A3039 RMK A01 T10131013  RH  100%=      5-min Rain = 0
KVA1 101359Z 18002KT M01/M01 A3039 RMK A01 T10131013  RH  100%=      5-min Rain = 0
KVA1 101400Z 18002KT M01/M01 A3039 RMK A01 T10131013  RH  100%=      5-min Rain = 0
KVA1 101401Z 18002KT M01/M01 A3039 RMK A01 T10131013  RH  100%=      5-min Rain = 0
KVA1 101402Z 17002KT M01/M01 A3039 RMK A01 T10131014  RH  100%=      5-min Rain = 0
KVA1 101403Z 17002KT M01/M01 A3039 RMK A01 T10141014  RH  100%=      5-min Rain = 0
KVA1 101404Z 17002KT M01/M01 A3039 RMK A01 T10131014  RH  100%=      5-min Rain = 0
KVA1 101405Z 18002KT M01/M01 A3039 RMK A01 T10141014  RH  100%=      5-min Rain = 0
KVA1 101406Z 19002KT M01/M01 A304 RMK A01 T10141014  RH  100%=      5-min Rain = 0
KVA1 101407Z 18002KT M01/M01 A304 RMK A01 T10141014  RH  100%=      5-min Rain = 0
KVA1 101408Z 17001KT M01/M01 A304 RMK A01 T10141014  RH  100%=      5-min Rain = 0
KVA1 101409Z 17002KT M01/M01 A304 RMK A01 T10141014  RH  100%=      5-min Rain = 0
KVA1 101410Z 17002KT M01/M01 A304 RMK A01 T10131014  RH  100%=      5-min Rain = 0
KVA1 101411Z 17002KT M01/M01 A304 RMK A01 T10141014  RH  100%=      5-min Rain = 0
KVA1 101412Z 17002KT M01/M01 A304 RMK A01 T10141014  RH  100%=      5-min Rain = 0
KVA1 101413Z 18002KT M01/M01 A304 RMK A01 T10141014  RH  100%=      5-min Rain = 0
KVA1 101414Z 17002KT M01/M01 A304 RMK A01 T10141014  RH  100%=      5-min Rain = 0
KVA1 101415Z 17002KT M01/M01 A304 RMK A01 T10131014  RH  100%=      5-min Rain = 0
KVA1 101416Z 17002KT M01/M01 A304 RMK A01 T10141014  RH  100%=      5-min Rain = 0
KVA1 101417Z 18002KT M01/M01 A304 RMK A01 T10131014  RH  100%=      5-min Rain = 0
KVA1 101418Z 17002KT M01/M01 A304 RMK A01 T10141014  RH  100%=      5-min Rain = 0
KVA1 101419Z 17002KT M01/M01 A304 RMK A01 T10141014  RH  100%=      5-min Rain = 0
KVA1 101420Z 18002KT M01/M02 A304 RMK A01 T10141015  RH  100%=      5-min Rain = 0
KVA1 101421Z 17002KT M01/M01 A304 RMK A01 T10141014  RH  100%=      5-min Rain = 0
KVA1 101422Z 17002KT M01/M01 A304 RMK A01 T10141014  RH  100%=      5-min Rain = 0
KVA1 101423Z 18002KT M01/M01 A304 RMK A01 T10141014  RH  100%=      5-min Rain = 0
KVA1 101424Z 17001KT M01/M01 A304 RMK A01 T10141014  RH  100%=      5-min Rain = 0
KVA1 101425Z 18002KT M01/M01 A304 RMK A01 T10141014  RH  100%=      5-min Rain = 0
KVA1 101426Z 16001KT M01/M02 A304 RMK A01 T10141015  RH  100%=      5-min Rain = 0
KVA1 101427Z 15002KT M02/M02 A304 RMK A01 T10151015  RH  100%=      5-min Rain = 0
KVA1 101428Z 15002KT M02/M02 A304 RMK A01 T10151015  RH  100%=      5-min Rain = 0
KVA1 101429Z 15002KT M01/M02 A304 RMK A01 T10141015  RH  100%=      5-min Rain = 0
KVA1 101430Z 16002KT M01/M02 A304 RMK A01 T10141015  RH  100%=      5-min Rain = 0
KVA1 101431Z 18002KT M01/M02 A304 RMK A01 T10141015  RH  100%=      5-min Rain = 0
KVA1 101432Z 18002KT M01/M02 A304 RMK A01 T10141015  RH  100%=      5-min Rain = 0
KVA1 101433Z 19003KT M01/M01 A304 RMK A01 T10141014  RH  100%=      5-min Rain = 0
KVA1 101434Z 19002KT M01/M01 A304 RMK A01 T10141014  RH  100%=      5-min Rain = 0
KVA1 101435Z 19002KT M01/M01 A304 RMK A01 T10141014  RH  100%=      5-min Rain = 0
KVA1 101436Z 17002KT M01/M01 A3041 RMK A01 T10131013  RH  100%=      5-min Rain = 0
KVA1 101437Z 17002KT M01/M01 A3041 RMK A01 T10131013  RH  100%=      5-min Rain = 0
KVA1 101438Z 17002KT M01/M01 A3041 RMK A01 T10131013  RH  100%=      5-min Rain = 0
KVA1 101439Z 16001KT M01/M01 A3041 RMK A01 T10131013  RH  100%=      5-min Rain = 0
KVA1 101440Z 17002KT M01/M01 A3041 RMK A01 T10121013  RH  100%=      5-min Rain = 0
KVA1 101441Z 17002KT M01/M01 A3041 RMK A01 T10111012  RH  100%=      5-min Rain = 0
KVA1 101442Z 17003KT M01/M01 A3041 RMK A01 T10111011  RH  100%=      5-min Rain = 0
KVA1 101443Z 17003KT M01/M01 A3041 RMK A01 T10111011  RH  100%=      5-min Rain = 0
KVA1 101444Z 16003KT M01/M01 A3041 RMK A01 T10111011  RH  100%=      5-min Rain = 0
KVA1 101445Z 16002KT M01/M01 A3041 RMK A01 T10111011  RH  100%=      5-min Rain = 0
KVA1 101446Z 17002KT M01/M01 A3041 RMK A01 T10101011  RH  100%=      5-min Rain = 0
KVA1 101447Z 17002KT M01/M01 A3041 RMK A01 T10101011  RH  100%=      5-min Rain = 0
KVA1 101448Z 17002KT M01/M01 A3041 RMK A01 T10101010  RH  100%=      5-min Rain = 0
KVA1 101449Z 18002KT M01/M01 A3041 RMK A01 T10101010  RH  100%=      5-min Rain = 0
KVA1 101450Z 18002KT M01/M01 A3041 RMK A01 T10101010  RH  100%=      5-min Rain = 0
KVA1 101451Z 18002KT M01/M01 A3041 RMK A01 T10091010  RH  100%=      5-min Rain = 0
KVA1 101452Z 18002KT M01/M01 A3041 RMK A01 T10091009  RH  100%=      5-min Rain = 0
KVA1 101453Z 19002KT M01/M01 A3041 RMK A01 T10081009  RH  100%=      5-min Rain = 0
KVA1 101454Z 19002KT M01/M01 A3041 RMK A01 T10081009  RH  100%=      5-min Rain = 0
KVA1 101455Z 19002KT M01/M01 A3041 RMK A01 T10081008  RH  100%=      5-min Rain = 0
KVA1 101456Z 20002KT M01/M01 A3041 RMK A01 T10081008  RH  100%=      5-min Rain = 0
KVA1 101457Z 20002KT M01/M01 A3041 RMK A01 T10071007  RH  100%=      5-min Rain = 0
KVA1 101458Z 20003KT M01/M01 A3041 RMK A01 T10061007  RH  100%=      5-min Rain = 0
KVA1 101459Z 20003KT M01/M01 A3041 RMK A01 T10061007  RH  100%=      5-min Rain = 0
KVA1 101500Z 20003KT M01/M01 A3041 RMK A01 T10051006  RH  099%=      5-min Rain = 0
KVA1 101501Z 20003KT M01/M01 A3041 RMK A01 T10051006  RH  099%=      5-min Rain = 0
KVA1 101502Z 20003KT M01/M01 A3041 RMK A01 T10051006  RH  099%=      5-min Rain = 0
KVA1 101503Z 20003KT M00/M01 A3041 RMK A01 T10041005  RH  099%=      5-min Rain = 0
KVA1 101504Z 19003KT M00/M01 A3041 RMK A01 T10041005  RH  099%=      5-min Rain = 0
KVA1 101505Z 19003KT M00/M01 A3041 RMK A01 T10041005  RH  099%=      5-min Rain = 0
KVA1 101506Z 20004KT M00/M00 A3041 RMK A01 T10031004  RH  099%=      5-min Rain = 0
KVA1 101507Z 20004KT M00/M00 A3041 RMK A01 T10021003  RH  099%=      5-min Rain = 0
KVA1 101508Z 20003KT M00/M00 A3041 RMK A01 T10011002  RH  099%=      5-min Rain = 0
KVA1 101509Z 21003KT M00/M00 A3041 RMK A01 T10011002  RH  099%=      5-min Rain = 0
KVA1 101510Z 21003KT M00/M00 A3041 RMK A01 T10011002  RH  099%=      5-min Rain = 0
KVA1 101511Z 21004KT M00/M00 A3041 RMK A01 T10011002  RH  099%=      5-min Rain = 0
KVA1 101512Z 21004KT 00/00 A3041 RMK A01 T000000-1  RH  099%=      5-min Rain = 0
KVA1 101513Z 21003KT 00/00 A3041 RMK A01 T000100-0  RH  099%=      5-min Rain = 0
KVA1 101514Z 22004KT 00/00 A3041 RMK A01 T00020001  RH  099%=      5-min Rain = 0
KVA1 101515Z 21003KT 00/00 A3041 RMK A01 T00030002  RH  099%=      5-min Rain = 0
KVA1 101516Z 21004KT 00/00 A3041 RMK A01 T00040002  RH  099%=      5-min Rain = 0
KVA1 101517Z 22004KT 00/00 A3041 RMK A01 T00040002  RH  099%=      5-min Rain = 0
KVA1 101518Z 21003KT 01/00 A3041 RMK A01 T00050004  RH  099%=      5-min Rain = 0
KVA1 101519Z 20003KT 01/01 A3041 RMK A01 T00070005  RH  099%=      5-min Rain = 0
KVA1 101520Z 21003KT 01/01 A3041 RMK A01 T00070006  RH  099%=      5-min Rain = 0
KVA1 101521Z 20003KT 01/01 A3041 RMK A01 T00080006  RH  099%=      5-min Rain = 0.01
KVA1 101522Z 21004KT 01/01 A3041 RMK A01 T00080006  RH  099%=      5-min Rain = 0
KVA1 101523Z 20004KT 01/01 A3041 RMK A01 T00070006  RH  099%=      5-min Rain = 0
KVA1 101524Z 20004KT 01/01 A3041 RMK A01 T00080006  RH  099%=      5-min Rain = 0
KVA1 101525Z 20004KT 01/01 A3041 RMK A01 T00080006  RH  099%=      5-min Rain = 0
KVA1 101526Z 20004KT 01/01 A3041 RMK A01 T00080006  RH  099%=      5-min Rain = 0
KVA1 101527Z 20004KT 01/01 A3041 RMK A01 T00070005  RH  098%=      5-min Rain = 0
KVA1 101528Z 20004KT 01/01 A3041 RMK A01 T00070005  RH  098%=      5-min Rain = 0
KVA1 101529Z 20004KT 01/01 A3041 RMK A01 T00070005  RH  099%=      5-min Rain = 0
KVA1 101530Z 20004KT 01/01 A3041 RMK A01 T00070006  RH  099%=      5-min Rain = 0
KVA1 101531Z 19004KT 01/01 A3041 RMK A01 T00070006  RH  099%=      5-min Rain = 0
KVA1 101532Z 20003KT 01/01 A3041 RMK A01 T00070006  RH  099%=      5-min Rain = 0
KVA1 101533Z 19003KT 01/01 A3041 RMK A01 T00070005  RH  099%=      5-min Rain = 0
KVA1 101534Z 18003KT 01/01 A3041 RMK A01 T00070005  RH  099%=      5-min Rain = 0
KVA1 101535Z 18003KT 01/01 A3041 RMK A01 T00070006  RH  099%=      5-min Rain = 0
KVA1 101536Z 19002KT 01/01 A3041 RMK A01 T00070006  RH  099%=      5-min Rain = 0
KVA1 101537Z 18002KT 01/01 A3041 RMK A01 T00070006  RH  099%=      5-min Rain = 0
KVA1 101538Z 19003KT 01/01 A3041 RMK A01 T00080006  RH  099%=      5-min Rain = 0
KVA1 101539Z 21003KT 01/01 A3041 RMK A01 T00080007  RH  099%=      5-min Rain = 0
KVA1 101540Z 20003KT 01/01 A3042 RMK A01 T00080007  RH  099%=      5-min Rain = 0
KVA1 101541Z 21003KT 01/01 A3042 RMK A01 T00080006  RH  099%=      5-min Rain = 0
KVA1 101542Z 20003KT 01/01 A3042 RMK A01 T00070005  RH  099%=      5-min Rain = 0
KVA1 101543Z 21002KT 01/00 A3042 RMK A01 T00060004  RH  099%=      5-min Rain = 0
KVA1 101544Z 22002KT 01/00 A3042 RMK A01 T00050003  RH  099%=      5-min Rain = 0
KVA1 101545Z 23002KT 01/00 A3042 RMK A01 T00050003  RH  099%=      5-min Rain = 0
KVA1 101546Z 21002KT 01/01 A3042 RMK A01 T00060005  RH  099%=      5-min Rain = 0
KVA1 101547Z 21002KT 01/01 A3042 RMK A01 T00080007  RH  099%=      5-min Rain = 0
KVA1 101548Z 21002KT 01/01 A3042 RMK A01 T00090007  RH  099%=      5-min Rain = 0
KVA1 101549Z 24002KT 01/01 A3042 RMK A01 T00110010  RH  099%=      5-min Rain = 0
KVA1 101550Z 22002KT 01/01 A3042 RMK A01 T00110010  RH  099%=      5-min Rain = 0
KVA1 101551Z 21003KT 01/01 A3042 RMK A01 T00120011  RH  099%=      5-min Rain = 0
KVA1 101552Z 20001KT 01/01 A3042 RMK A01 T00130012  RH  099%=      5-min Rain = 0
KVA1 101553Z 22002KT 01/01 A3042 RMK A01 T00130012  RH  099%=      5-min Rain = 0
KVA1 101554Z 23002KT 01/01 A3042 RMK A01 T00130012  RH  099%=      5-min Rain = 0
KVA1 101555Z 22002KT 01/01 A3042 RMK A01 T00130011  RH  099%=      5-min Rain = 0
KVA1 101556Z 22002KT 01/01 A3042 RMK A01 T00130011  RH  099%=      5-min Rain = 0
KVA1 101557Z 23002KT 01/01 A3042 RMK A01 T00130012  RH  099%=      5-min Rain = 0
KVA1 101558Z 22002KT 01/01 A3042 RMK A01 T00140012  RH  099%=      5-min Rain = 0
KVA1 101559Z 23001KT 01/01 A3042 RMK A01 T00140012  RH  099%=      5-min Rain = 0
KVA1 101600Z 22002KT 01/01 A3042 RMK A01 T00140013  RH  099%=      5-min Rain = 0
KVA1 101601Z 22002KT 02/01 A3042 RMK A01 T00150014  RH  099%=      5-min Rain = 0
KVA1 101602Z 22003KT 02/02 A3042 RMK A01 T00160015  RH  099%=      5-min Rain = 0
KVA1 101603Z 22002KT 02/02 A3042 RMK A01 T00170016  RH  099%=      5-min Rain = 0
KVA1 101604Z 22002KT 02/02 A3042 RMK A01 T00170015  RH  099%=      5-min Rain = 0
KVA1 101605Z 20003KT 02/02 A3042 RMK A01 T00160015  RH  099%=      5-min Rain = 0
KVA1 101606Z 20002KT 02/02 A3042 RMK A01 T00160015  RH  099%=      5-min Rain = 0
KVA1 101607Z 19001KT 02/02 A3042 RMK A01 T00160015  RH  099%=      5-min Rain = 0
KVA1 101608Z 13001KT 02/02 A3042 RMK A01 T00160015  RH  099%=      5-min Rain = 0
KVA1 101609Z 12000KT 02/02 A3042 RMK A01 T00170016  RH  099%=      5-min Rain = 0
KVA1 101610Z 26000KT 02/02 A3042 RMK A01 T00180017  RH  099%=      5-min Rain = 0
KVA1 101611Z 23001KT 02/02 A3042 RMK A01 T00190018  RH  099%=      5-min Rain = 0
KVA1 101612Z 22001KT 02/02 A3042 RMK A01 T00190018  RH  099%=      5-min Rain = 0
KVA1 101613Z 23001KT 02/02 A3042 RMK A01 T00190018  RH  099%=      5-min Rain = 0
KVA1 101614Z 22001KT 02/02 A3042 RMK A01 T00200019  RH  099%=      5-min Rain = 0
KVA1 101615Z 21001KT 02/02 A3042 RMK A01 T00200019  RH  099%=      5-min Rain = 0
KVA1 101616Z 21001KT 02/02 A3042 RMK A01 T00190018  RH  099%=      5-min Rain = 0
KVA1 101617Z 21001KT 02/02 A3042 RMK A01 T00190018  RH  099%=      5-min Rain = 0
KVA1 101618Z 18001KT 02/02 A3042 RMK A01 T00190018  RH  099%=      5-min Rain = 0
KVA1 101619Z 15000KT 02/02 A3042 RMK A01 T00200019  RH  099%=      5-min Rain = 0
KVA1 101620Z 18000KT 02/02 A3042 RMK A01 T00210020  RH  099%=      5-min Rain = 0
KVA1 101621Z 16000KT 02/02 A3042 RMK A01 T00220020  RH  099%=      5-min Rain = 0
KVA1 101622Z 23000KT 02/02 A3042 RMK A01 T00230022  RH  099%=      5-min Rain = 0
KVA1 101623Z 16001KT 02/02 A3042 RMK A01 T00240023  RH  099%=      5-min Rain = 0
KVA1 101624Z 17002KT 03/02 A3042 RMK A01 T00250024  RH  099%=      5-min Rain = 0
KVA1 101625Z 15002KT 03/02 A3042 RMK A01 T00250023  RH  099%=      5-min Rain = 0
KVA1 101626Z 16002KT 03/02 A3042 RMK A01 T00250023  RH  099%=      5-min Rain = 0
KVA1 101627Z 15001KT 03/02 A3042 RMK A01 T00260024  RH  099%=      5-min Rain = 0
KVA1 101628Z 16001KT 03/03 A3042 RMK A01 T00270025  RH  099%=      5-min Rain = 0
KVA1 101629Z 18001KT 03/03 A3042 RMK A01 T00270026  RH  099%=      5-min Rain = 0
KVA1 101630Z 19002KT 03/03 A3042 RMK A01 T00270026  RH  099%=      5-min Rain = 0
KVA1 101631Z 20002KT 03/03 A3042 RMK A01 T00270025  RH  099%=      5-min Rain = 0
KVA1 101632Z 16001KT 03/02 A3042 RMK A01 T00250024  RH  099%=      5-min Rain = 0
KVA1 101633Z 17001KT 03/02 A3042 RMK A01 T00260024  RH  099%=      5-min Rain = 0
KVA1 101634Z 20000KT 03/03 A3042 RMK A01 T00270025  RH  099%=      5-min Rain = 0
KVA1 101635Z 25001KT 03/03 A3042 RMK A01 T00270026  RH  099%=      5-min Rain = 0
KVA1 101636Z 21001KT 03/03 A3042 RMK A01 T00270025  RH  099%=      5-min Rain = 0
KVA1 101637Z 17002KT 03/03 A3042 RMK A01 T00270025  RH  099%=      5-min Rain = 0
KVA1 101638Z 16002KT 03/03 A3042 RMK A01 T00280026  RH  099%=      5-min Rain = 0
KVA1 101639Z 15002KT 03/03 A3042 RMK A01 T00280026  RH  099%=      5-min Rain = 0
KVA1 101640Z 16003KT 03/03 A3042 RMK A01 T00280026  RH  099%=      5-min Rain = 0
KVA1 101641Z 16002KT 03/03 A3042 RMK A01 T00280026  RH  099%=      5-min Rain = 0
KVA1 101642Z 15002KT 03/03 A3042 RMK A01 T00280026  RH  099%=      5-min Rain = 0
KVA1 101643Z 16002KT 03/03 A3042 RMK A01 T00280026  RH  099%=      5-min Rain = 0
KVA1 101644Z 14001KT 03/03 A3042 RMK A01 T00280026  RH  099%=      5-min Rain = 0
KVA1 101645Z 12002KT 03/03 A3042 RMK A01 T00280026  RH  099%=      5-min Rain = 0
KVA1 101646Z 12001KT 03/03 A3042 RMK A01 T00290027  RH  099%=      5-min Rain = 0
KVA1 101647Z 15002KT 03/03 A3042 RMK A01 T00290027  RH  099%=      5-min Rain = 0
KVA1 101648Z 16002KT 03/03 A3042 RMK A01 T00300029  RH  099%=      5-min Rain = 0
KVA1 101649Z 16002KT 03/03 A3042 RMK A01 T00300029  RH  099%=      5-min Rain = 0
KVA1 101650Z 14001KT 03/03 A3042 RMK A01 T00320030  RH  099%=      5-min Rain = 0
KVA1 101651Z 15001KT 03/03 A3042 RMK A01 T00310029  RH  099%=      5-min Rain = 0
KVA1 101652Z 13000KT 03/03 A3042 RMK A01 T00310029  RH  098%=      5-min Rain = 0
KVA1 101653Z 11002KT 03/03 A3042 RMK A01 T00310029  RH  098%=      5-min Rain = 0
KVA1 101654Z 13002KT 03/03 A3042 RMK A01 T00320030  RH  099%=      5-min Rain = 0
KVA1 101655Z 17002KT 03/03 A3042 RMK A01 T00320030  RH  099%=      5-min Rain = 0
KVA1 101656Z 16001KT 03/03 A3042 RMK A01 T00320030  RH  099%=      5-min Rain = 0
KVA1 101657Z 15001KT 03/03 A3042 RMK A01 T00320030  RH  099%=      5-min Rain = 0
KVA1 101658Z 14002KT 03/03 A3042 RMK A01 T00340032  RH  099%=      5-min Rain = 0
KVA1 101659Z 14001KT 03/03 A3042 RMK A01 T00340032  RH  099%=      5-min Rain = 0
KVA1 101700Z 14001KT 03/03 A3042 RMK A01 T00340032  RH  099%=      5-min Rain = 0
KVA1 101701Z 08000KT 03/03 A3042 RMK A01 T00330030  RH  098%=      5-min Rain = 0
KVA1 101702Z 07001KT 03/03 A3042 RMK A01 T00320029  RH  098%=      5-min Rain = 0
KVA1 101703Z 05001KT 03/03 A3042 RMK A01 T00320029  RH  098%=      5-min Rain = 0
KVA1 101704Z 08001KT 03/03 A3042 RMK A01 T00320029  RH  098%=      5-min Rain = 0
KVA1 101705Z 14001KT 03/03 A3042 RMK A01 T00320030  RH  098%=      5-min Rain = 0
KVA1 101706Z 13001KT 03/03 A3042 RMK A01 T00340032  RH  098%=      5-min Rain = 0
KVA1 101707Z 11001KT 04/03 A3042 RMK A01 T00360033  RH  098%=      5-min Rain = 0
KVA1 101708Z 11001KT 04/03 A3042 RMK A01 T00350032  RH  098%=      5-min Rain = 0
KVA1 101709Z 11001KT 04/03 A3042 RMK A01 T00350032  RH  098%=      5-min Rain = 0
KVA1 101710Z 11001KT 04/03 A3042 RMK A01 T00350032  RH  098%=      5-min Rain = 0
KVA1 101711Z 12001KT 04/03 A3042 RMK A01 T00350032  RH  098%=      5-min Rain = 0
KVA1 101712Z 12001KT 04/03 A3042 RMK A01 T00360033  RH  098%=      5-min Rain = 0
KVA1 101713Z 16001KT 04/03 A3042 RMK A01 T00360033  RH  098%=      5-min Rain = 0
KVA1 101714Z 14001KT 04/03 A3042 RMK A01 T00360033  RH  098%=      5-min Rain = 0
KVA1 101715Z 12002KT 04/03 A3041 RMK A01 T00370034  RH  098%=      5-min Rain = 0
KVA1 101716Z 11002KT 04/03 A3041 RMK A01 T00380033  RH  097%=      5-min Rain = 0
KVA1 101717Z 13002KT 04/03 A3041 RMK A01 T00380033  RH  097%=      5-min Rain = 0
KVA1 101718Z 12002KT 04/03 A3041 RMK A01 T00380033  RH  097%=      5-min Rain = 0
KVA1 101719Z 10002KT 04/03 A3041 RMK A01 T00380033  RH  097%=      5-min Rain = 0
KVA1 101720Z 10002KT 04/03 A3041 RMK A01 T00380033  RH  097%=      5-min Rain = 0
KVA1 101721Z 07001KT 04/03 A3041 RMK A01 T00390034  RH  097%=      5-min Rain = 0
KVA1 101722Z 08002KT 04/03 A3041 RMK A01 T00390034  RH  096%=      5-min Rain = 0
KVA1 101723Z 07001KT 04/03 A3041 RMK A01 T00390033  RH  096%=      5-min Rain = 0
KVA1 101724Z 08002KT 04/03 A3041 RMK A01 T00390033  RH  096%=      5-min Rain = 0
KVA1 101725Z 09003KT 04/03 A3041 RMK A01 T00380033  RH  096%=      5-min Rain = 0
KVA1 101726Z 12002KT 04/03 A3041 RMK A01 T00370031  RH  096%=      5-min Rain = 0
KVA1 101727Z 10004KT 04/03 A3041 RMK A01 T00380033  RH  096%=      5-min Rain = 0
KVA1 101728Z 10003KT 04/03 A3041 RMK A01 T00400034  RH  096%=      5-min Rain = 0
KVA1 101729Z 10003KT 04/03 A3041 RMK A01 T00400033  RH  096%=      5-min Rain = 0
KVA1 101730Z 11003KT 04/03 A3041 RMK A01 T00390032  RH  095%=      5-min Rain = 0
KVA1 101731Z 09003KT 04/03 A3041 RMK A01 T00400033  RH  095%=      5-min Rain = 0
KVA1 101732Z 10002KT 04/04 A3041 RMK A01 T00430036  RH  095%=      5-min Rain = 0
KVA1 101733Z 09002KT 04/04 A304 RMK A01 T00430035  RH  095%=      5-min Rain = 0
KVA1 101734Z 06003KT 04/04 A304 RMK A01 T00420035  RH  095%=      5-min Rain = 0
KVA1 101735Z 08003KT 04/03 A304 RMK A01 T00420033  RH  094%=      5-min Rain = 0
KVA1 101736Z 09003KT 04/03 A304 RMK A01 T00410033  RH  094%=      5-min Rain = 0
KVA1 101737Z 07003KT 04/03 A304 RMK A01 T00420034  RH  095%=      5-min Rain = 0
KVA1 101738Z 08003KT 04/03 A304 RMK A01 T00420034  RH  095%=      5-min Rain = 0
KVA1 101739Z 08003KT 04/04 A304 RMK A01 T00430035  RH  095%=      5-min Rain = 0
KVA1 101740Z 07003KT 04/03 A304 RMK A01 T00420033  RH  094%=      5-min Rain = 0
KVA1 101741Z 07002KT 04/03 A304 RMK A01 T00420033  RH  094%=      5-min Rain = 0
KVA1 101742Z 07002KT 04/03 A304 RMK A01 T00420033  RH  094%=      5-min Rain = 0
KVA1 101743Z 07002KT 04/03 A304 RMK A01 T00410032  RH  094%=      5-min Rain = 0
KVA1 101744Z 07002KT 04/03 A304 RMK A01 T00420034  RH  094%=      5-min Rain = 0
KVA1 101745Z 08002KT 04/03 A304 RMK A01 T00420034  RH  094%=      5-min Rain = 0
KVA1 101746Z 07002KT 04/03 A304 RMK A01 T00420033  RH  094%=      5-min Rain = 0
KVA1 101747Z 09003KT 04/03 A304 RMK A01 T00420033  RH  094%=      5-min Rain = 0
KVA1 101748Z 08003KT 04/04 A304 RMK A01 T00440035  RH  094%=      5-min Rain = 0
KVA1 101749Z 08003KT 05/04 A304 RMK A01 T00460037  RH  094%=      5-min Rain = 0
KVA1 101750Z 06002KT 05/04 A304 RMK A01 T00470038  RH  094%=      5-min Rain = 0
KVA1 101751Z 08003KT 05/04 A304 RMK A01 T00470037  RH  093%=      5-min Rain = 0
KVA1 101752Z 09002KT 05/04 A304 RMK A01 T00470036  RH  093%=      5-min Rain = 0
KVA1 101753Z 08003KT 05/04 A304 RMK A01 T00470036  RH  093%=      5-min Rain = 0
KVA1 101754Z 06002KT 05/04 A304 RMK A01 T00470036  RH  092%=      5-min Rain = 0
KVA1 101755Z 09002KT 05/04 A304 RMK A01 T00470037  RH  093%=      5-min Rain = 0
KVA1 101756Z 08002KT 05/04 A304 RMK A01 T00480038  RH  093%=      5-min Rain = 0
KVA1 101757Z 08003KT 05/04 A304 RMK A01 T00480037  RH  092%=      5-min Rain = 0
KVA1 101758Z 09002KT 05/04 A304 RMK A01 T00480036  RH  092%=      5-min Rain = 0
KVA1 101759Z 06002KT 05/04 A304 RMK A01 T00480037  RH  093%=      5-min Rain = 0
KVA1 101800Z 07002KT 05/04 A304 RMK A01 T00490039  RH  093%=      5-min Rain = 0
KVA1 101801Z 09003KT 05/04 A304 RMK A01 T00500039  RH  093%=      5-min Rain = 0
KVA1 101802Z 09003KT 05/04 A304 RMK A01 T00500038  RH  092%=      5-min Rain = 0
KVA1 101803Z 10002KT 05/04 A304 RMK A01 T00490037  RH  092%=      5-min Rain = 0
KVA1 101804Z 08002KT 05/04 A304 RMK A01 T00490037  RH  092%=      5-min Rain = 0
KVA1 101805Z 08002KT 05/04 A304 RMK A01 T00500038  RH  092%=      5-min Rain = 0
KVA1 101806Z 09003KT 05/04 A3039 RMK A01 T00520041  RH  093%=      5-min Rain = 0
KVA1 101807Z 09002KT 05/04 A3039 RMK A01 T00530042  RH  092%=      5-min Rain = 0
KVA1 101808Z 04001KT 05/04 A3039 RMK A01 T00540040  RH  091%=      5-min Rain = 0
KVA1 101809Z 05002KT 05/04 A3039 RMK A01 T00530039  RH  091%=      5-min Rain = 0
KVA1 101810Z 07001KT 05/04 A3039 RMK A01 T00530040  RH  091%=      5-min Rain = 0
KVA1 101811Z 10003KT 06/04 A3039 RMK A01 T00550042  RH  092%=      5-min Rain = 0
KVA1 101812Z 10002KT 06/04 A3039 RMK A01 T00550041  RH  090%=      5-min Rain = 0
KVA1 101813Z 10002KT 06/04 A3039 RMK A01 T00560040  RH  090%=      5-min Rain = 0
KVA1 101814Z 05002KT 06/04 A3039 RMK A01 T00570041  RH  090%=      5-min Rain = 0
KVA1 101815Z 07003KT 06/04 A3039 RMK A01 T00570040  RH  089%=      5-min Rain = 0
KVA1 101816Z 07003KT 06/04 A3039 RMK A01 T00570040  RH  089%=      5-min Rain = 0
KVA1 101817Z 08002KT 06/04 A3038 RMK A01 T00560039  RH  089%=      5-min Rain = 0
KVA1 101818Z 07002KT 06/04 A3038 RMK A01 T00560040  RH  089%=      5-min Rain = 0
KVA1 101819Z 05003KT 06/04 A3038 RMK A01 T00560040  RH  089%=      5-min Rain = 0
KVA1 101820Z 09001KT 06/04 A3038 RMK A01 T00560039  RH  089%=      5-min Rain = 0
KVA1 101821Z 07002KT 06/04 A3038 RMK A01 T00570041  RH  089%=      5-min Rain = 0
KVA1 101822Z 06003KT 06/04 A3038 RMK A01 T00570041  RH  089%=      5-min Rain = 0
KVA1 101823Z 07003KT 06/04 A3038 RMK A01 T00580041  RH  089%=      5-min Rain = 0
KVA1 101824Z 08003KT 06/04 A3038 RMK A01 T00590041  RH  089%=      5-min Rain = 0
KVA1 101825Z 08002KT 06/04 A3038 RMK A01 T00600043  RH  089%=      5-min Rain = 0
KVA1 101826Z 06003KT 06/04 A3038 RMK A01 T00620044  RH  088%=      5-min Rain = 0
KVA1 101827Z 03003KT 06/04 A3038 RMK A01 T00620043  RH  088%=      5-min Rain = 0
KVA1 101828Z 03002KT 06/04 A3038 RMK A01 T00610041  RH  087%=      5-min Rain = 0
KVA1 101829Z 08002KT 06/04 A3038 RMK A01 T00610042  RH  088%=      5-min Rain = 0
KVA1 101830Z 09003KT 06/04 A3038 RMK A01 T00620044  RH  088%=      5-min Rain = 0
KVA1 101831Z 08002KT 06/04 A3038 RMK A01 T00640043  RH  087%=      5-min Rain = 0
KVA1 101832Z 08002KT 07/04 A3038 RMK A01 T00650044  RH  086%=      5-min Rain = 0
KVA1 101833Z 08002KT 07/04 A3038 RMK A01 T00670043  RH  085%=      5-min Rain = 0
KVA1 101834Z 05003KT 07/05 A3038 RMK A01 T00680045  RH  086%=      5-min Rain = 0
KVA1 101835Z 04003KT 07/05 A3038 RMK A01 T00700047  RH  086%=      5-min Rain = 0
KVA1 101836Z 06003KT 07/04 A3038 RMK A01 T00690044  RH  084%=      5-min Rain = 0
KVA1 101837Z 05003KT 07/04 A3038 RMK A01 T00680044  RH  084%=      5-min Rain = 0
KVA1 101838Z 06003KT 07/04 A3038 RMK A01 T00680043  RH  085%=      5-min Rain = 0
KVA1 101839Z 06003KT 07/04 A3037 RMK A01 T00670043  RH  085%=      5-min Rain = 0
KVA1 101840Z 08004KT 07/05 A3037 RMK A01 T00690047  RH  086%=      5-min Rain = 0
KVA1 101841Z 08003KT 07/05 A3037 RMK A01 T00710045  RH  084%=      5-min Rain = 0
KVA1 101842Z 07003KT 07/05 A3037 RMK A01 T00720045  RH  083%=      5-min Rain = 0
KVA1 101843Z 06002KT 07/05 A3037 RMK A01 T00730045  RH  083%=      5-min Rain = 0
KVA1 101844Z 05003KT 07/05 A3037 RMK A01 T00730046  RH  083%=      5-min Rain = 0
KVA1 101845Z 08002KT 07/05 A3037 RMK A01 T00730045  RH  082%=      5-min Rain = 0
KVA1 101846Z 06002KT 07/05 A3037 RMK A01 T00730045  RH  082%=      5-min Rain = 0
KVA1 101847Z 03002KT 07/04 A3037 RMK A01 T00730044  RH  082%=      5-min Rain = 0
KVA1 101848Z 05003KT 07/05 A3037 RMK A01 T00720046  RH  083%=      5-min Rain = 0
KVA1 101849Z 06003KT 07/05 A3037 RMK A01 T00740046  RH  083%=      5-min Rain = 0
KVA1 101850Z 08002KT 07/05 A3037 RMK A01 T00740045  RH  082%=      5-min Rain = 0
KVA1 101851Z 07001KT 08/05 A3037 RMK A01 T00750045  RH  082%=      5-min Rain = 0
KVA1 101852Z 08003KT 08/05 A3037 RMK A01 T00750045  RH  081%=      5-min Rain = 0
KVA1 101853Z 04002KT 08/05 A3037 RMK A01 T00750047  RH  082%=      5-min Rain = 0
KVA1 101854Z 03003KT 08/05 A3037 RMK A01 T00760048  RH  082%=      5-min Rain = 0
KVA1 101855Z 01002KT 08/05 A3037 RMK A01 T00770048  RH  082%=      5-min Rain = 0
KVA1 101856Z 00002KT 08/05 A3036 RMK A01 T00770046  RH  081%=      5-min Rain = 0
KVA1 101857Z 07003KT 08/05 A3036 RMK A01 T00770048  RH  082%=      5-min Rain = 0
KVA1 101858Z 08002KT 08/05 A3036 RMK A01 T00790049  RH  081%=      5-min Rain = 0
KVA1 101859Z 09002KT 08/05 A3036 RMK A01 T00800048  RH  080%=      5-min Rain = 0
KVA1 101900Z 11001KT 08/05 A3036 RMK A01 T00800047  RH  079%=      5-min Rain = 0
KVA1 101901Z 10001KT 08/05 A3036 RMK A01 T00810046  RH  079%=      5-min Rain = 0
KVA1 101902Z 09002KT 08/05 A3036 RMK A01 T00820045  RH  077%=      5-min Rain = 0
KVA1 101903Z 14002KT 08/04 A3036 RMK A01 T00820044  RH  077%=      5-min Rain = 0
KVA1 101904Z 10001KT 08/04 A3036 RMK A01 T00820044  RH  077%=      5-min Rain = 0
KVA1 101905Z 09002KT 08/05 A3036 RMK A01 T00830047  RH  078%=      5-min Rain = 0
KVA1 101906Z 05002KT 09/05 A3036 RMK A01 T00850046  RH  077%=      5-min Rain = 0
KVA1 101907Z 05001KT 08/04 A3036 RMK A01 T00840044  RH  076%=      5-min Rain = 0
KVA1 101908Z 10001KT 08/05 A3036 RMK A01 T00840046  RH  077%=      5-min Rain = 0
KVA1 101909Z 09002KT 09/05 A3036 RMK A01 T00850046  RH  076%=      5-min Rain = 0
KVA1 101910Z 09003KT 09/05 A3036 RMK A01 T00860045  RH  075%=      5-min Rain = 0
KVA1 101911Z 06002KT 09/04 A3035 RMK A01 T00860044  RH  075%=      5-min Rain = 0
KVA1 101912Z 11002KT 09/05 A3035 RMK A01 T00860045  RH  075%=      5-min Rain = 0
KVA1 101913Z 06002KT 09/05 A3035 RMK A01 T00870046  RH  075%=      5-min Rain = 0
KVA1 101914Z 04003KT 09/05 A3035 RMK A01 T00880047  RH  075%=      5-min Rain = 0
KVA1 101915Z 06003KT 09/05 A3035 RMK A01 T00870046  RH  075%=      5-min Rain = 0
KVA1 101916Z 05003KT 09/05 A3035 RMK A01 T00880047  RH  076%=      5-min Rain = 0
KVA1 101917Z 06003KT 09/04 A3035 RMK A01 T00880044  RH  074%=      5-min Rain = 0
KVA1 101918Z 08002KT 09/04 A3035 RMK A01 T00870044  RH  074%=      5-min Rain = 0
KVA1 101919Z 06002KT 09/05 A3035 RMK A01 T00870046  RH  075%=      5-min Rain = 0
KVA1 101920Z 06003KT 09/05 A3035 RMK A01 T00890047  RH  075%=      5-min Rain = 0
KVA1 101921Z 08003KT 09/05 A3034 RMK A01 T00900048  RH  075%=      5-min Rain = 0
KVA1 101922Z 05003KT 09/05 A3034 RMK A01 T00920048  RH  074%=      5-min Rain = 0
KVA1 101923Z 05003KT 09/05 A3034 RMK A01 T00920048  RH  074%=      5-min Rain = 0
KVA1 101924Z 06003KT 09/05 A3034 RMK A01 T00920047  RH  073%=      5-min Rain = 0
KVA1 101925Z 08003KT 09/05 A3034 RMK A01 T00930046  RH  073%=      5-min Rain = 0
KVA1 101926Z 08002KT 09/04 A3034 RMK A01 T00930043  RH  071%=      5-min Rain = 0
KVA1 101927Z 06002KT 09/04 A3034 RMK A01 T00930044  RH  072%=      5-min Rain = 0
KVA1 101928Z 05003KT 09/05 A3034 RMK A01 T00940046  RH  072%=      5-min Rain = 0
KVA1 101929Z 06002KT 10/04 A3034 RMK A01 T00950044  RH  071%=      5-min Rain = 0
KVA1 101930Z 05003KT 10/05 A3034 RMK A01 T00960045  RH  071%=      5-min Rain = 0
KVA1 101931Z 07004KT 10/05 A3034 RMK A01 T00960047  RH  071%=      5-min Rain = 0
KVA1 101932Z 05002KT 10/05 A3034 RMK A01 T00950045  RH  071%=      5-min Rain = 0
KVA1 101933Z 06002KT 09/04 A3034 RMK A01 T00940044  RH  071%=      5-min Rain = 0
KVA1 101934Z 07001KT 09/05 A3034 RMK A01 T00940045  RH  071%=      5-min Rain = 0
KVA1 101935Z 11000KT 10/05 A3034 RMK A01 T00950047  RH  072%=      5-min Rain = 0
KVA1 101936Z 09001KT 10/05 A3034 RMK A01 T00990047  RH  070%=      5-min Rain = 0
KVA1 101937Z 06002KT 10/05 A3034 RMK A01 T01020046  RH  068%=      5-min Rain = 0
KVA1 101938Z 06001KT 10/05 A3034 RMK A01 T01020046  RH  068%=      5-min Rain = 0
KVA1 101939Z 12002KT 10/05 A3034 RMK A01 T01020046  RH  068%=      5-min Rain = 0
KVA1 101940Z 13002KT 10/04 A3034 RMK A01 T01040044  RH  067%=      5-min Rain = 0
KVA1 101941Z 11002KT 11/04 A3034 RMK A01 T01060044  RH  066%=      5-min Rain = 0
KVA1 101942Z 08000KT 11/04 A3034 RMK A01 T01060044  RH  065%=      5-min Rain = 0
KVA1 101943Z 03001KT 11/05 A3034 RMK A01 T01070046  RH  066%=      5-min Rain = 0
KVA1 101944Z 06002KT 11/05 A3034 RMK A01 T01070049  RH  067%=      5-min Rain = 0
KVA1 101945Z 06002KT 11/05 A3034 RMK A01 T01090051  RH  067%=      5-min Rain = 0
KVA1 101946Z 06001KT 11/05 A3033 RMK A01 T01100051  RH  067%=      5-min Rain = 0
KVA1 101947Z 08002KT 11/05 A3033 RMK A01 T01100049  RH  066%=      5-min Rain = 0
KVA1 101948Z 10003KT 11/05 A3033 RMK A01 T01110047  RH  065%=      5-min Rain = 0
KVA1 101949Z 10002KT 11/05 A3033 RMK A01 T01110047  RH  065%=      5-min Rain = 0
KVA1 101950Z 09002KT 11/05 A3033 RMK A01 T01110046  RH  064%=      5-min Rain = 0
KVA1 101951Z 10002KT 11/05 A3033 RMK A01 T01110046  RH  064%=      5-min Rain = 0
KVA1 101952Z 13003KT 11/04 A3033 RMK A01 T01110043  RH  063%=      5-min Rain = 0
KVA1 101953Z 09003KT 11/04 A3033 RMK A01 T01110044  RH  063%=      5-min Rain = 0
KVA1 101954Z 10001KT 11/04 A3033 RMK A01 T01110044  RH  063%=      5-min Rain = 0
KVA1 101955Z 03002KT 11/05 A3033 RMK A01 T01110046  RH  064%=      5-min Rain = 0
KVA1 101956Z 07002KT 11/05 A3033 RMK A01 T01120048  RH  065%=      5-min Rain = 0
KVA1 101957Z 12002KT 11/05 A3033 RMK A01 T01130046  RH  063%=      5-min Rain = 0
KVA1 101958Z 07003KT 11/04 A3033 RMK A01 T01140044  RH  062%=      5-min Rain = 0
KVA1 101959Z 08004KT 11/04 A3033 RMK A01 T01140044  RH  062%=      5-min Rain = 0
KVA1 102000Z 08002KT 11/04 A3033 RMK A01 T01140041  RH  061%=      5-min Rain = 0
KVA1 102001Z 11002KT 11/04 A3032 RMK A01 T01140043  RH  062%=      5-min Rain = 0
KVA1 102002Z 09002KT 12/04 A3032 RMK A01 T01150040  RH  060%=      5-min Rain = 0
KVA1 102003Z 08002KT 12/04 A3032 RMK A01 T01150038  RH  059%=      5-min Rain = 0
KVA1 102004Z 08003KT 12/04 A3032 RMK A01 T01150038  RH  059%=      5-min Rain = 0
KVA1 102005Z 10003KT 12/04 A3032 RMK A01 T01150038  RH  059%=      5-min Rain = 0
KVA1 102006Z 10003KT 12/04 A3032 RMK A01 T01150038  RH  059%=      5-min Rain = 0
KVA1 102007Z 09002KT 12/04 A3032 RMK A01 T01170041  RH  060%=      5-min Rain = 0
KVA1 102008Z 14001KT 12/04 A3032 RMK A01 T01180039  RH  059%=      5-min Rain = 0
KVA1 102009Z 16002KT 12/04 A3032 RMK A01 T01190041  RH  059%=      5-min Rain = 0
KVA1 102010Z 14002KT 12/04 A3032 RMK A01 T01210040  RH  058%=      5-min Rain = 0
KVA1 102011Z 09002KT 12/04 A3032 RMK A01 T01220042  RH  058%=      5-min Rain = 0
KVA1 102012Z 10003KT 12/04 A3032 RMK A01 T01220039  RH  057%=      5-min Rain = 0
KVA1 102013Z 12004KT 12/04 A3032 RMK A01 T01200037  RH  057%=      5-min Rain = 0
KVA1 102014Z 14004KT 12/04 A3032 RMK A01 T01190037  RH  057%=      5-min Rain = 0
KVA1 102015Z 13002KT 12/04 A3032 RMK A01 T01200038  RH  057%=      5-min Rain = 0
KVA1 102016Z 12003KT 12/04 A3032 RMK A01 T01220040  RH  057%=      5-min Rain = 0
KVA1 102017Z 14003KT 12/04 A3032 RMK A01 T01230040  RH  057%=      5-min Rain = 0
KVA1 102018Z 15003KT 13/04 A3031 RMK A01 T01250039  RH  056%=      5-min Rain = 0
KVA1 102019Z 16001KT 13/04 A3031 RMK A01 T01270042  RH  056%=      5-min Rain = 0
KVA1 102020Z 22002KT 13/04 A3031 RMK A01 T01280037  RH  054%=      5-min Rain = 0
KVA1 102021Z 16005KT 13/04 A3031 RMK A01 T01280039  RH  054%=      5-min Rain = 0
KVA1 102022Z 17004KT 13/04 A3031 RMK A01 T01310042  RH  055%=      5-min Rain = 0
KVA1 102023Z 19002KT 13/04 A3031 RMK A01 T01290036  RH  053%=      5-min Rain = 0
KVA1 102024Z 17003KT 13/04 A3031 RMK A01 T01270036  RH  054%=      5-min Rain = 0
KVA1 102025Z 17003KT 13/04 A3031 RMK A01 T01270037  RH  054%=      5-min Rain = 0
KVA1 102026Z 18002KT 13/04 A3031 RMK A01 T01280036  RH  053%=      5-min Rain = 0
KVA1 102027Z 18002KT 13/04 A3031 RMK A01 T01300035  RH  053%=      5-min Rain = 0
KVA1 102028Z 08002KT 13/03 A3031 RMK A01 T01300033  RH  052%=      5-min Rain = 0
KVA1 102029Z 07001KT 13/03 A3031 RMK A01 T01290034  RH  052%=      5-min Rain = 0
KVA1 102030Z 16002KT 13/04 A3031 RMK A01 T01280037  RH  054%=      5-min Rain = 0
KVA1 102031Z 17003KT 13/04 A3031 RMK A01 T01290036  RH  053%=      5-min Rain = 0
KVA1 102032Z 20002KT 13/03 A3031 RMK A01 T01300031  RH  051%=      5-min Rain = 0
KVA1 102033Z 19003KT 13/03 A3031 RMK A01 T01310030  RH  050%=      5-min Rain = 0
KVA1 102034Z 20004KT 13/03 A3031 RMK A01 T01320034  RH  051%=      5-min Rain = 0
KVA1 102035Z 19004KT 13/03 A3031 RMK A01 T01330033  RH  051%=      5-min Rain = 0
KVA1 102036Z 18004KT 13/03 A3031 RMK A01 T01320032  RH  051%=      5-min Rain = 0
KVA1 102037Z 20004KT 13/03 A3031 RMK A01 T01320034  RH  051%=      5-min Rain = 0
KVA1 102038Z 22004KT 13/03 A303 RMK A01 T01330033  RH  051%=      5-min Rain = 0
KVA1 102039Z 22003KT 13/03 A303 RMK A01 T01330032  RH  051%=      5-min Rain = 0
KVA1 102040Z 22001KT 13/03 A303 RMK A01 T01320031  RH  050%=      5-min Rain = 0
KVA1 102041Z 20001KT 13/03 A303 RMK A01 T01320029  RH  050%=      5-min Rain = 0
KVA1 102042Z 04000KT 13/03 A303 RMK A01 T01320029  RH  050%=      5-min Rain = 0
KVA1 102043Z 02001KT 13/03 A303 RMK A01 T01310030  RH  050%=      5-min Rain = 0
KVA1 102044Z 02000KT 13/03 A303 RMK A01 T01300030  RH  050%=      5-min Rain = 0
KVA1 102045Z 11000KT 13/03 A303 RMK A01 T01290031  RH  051%=      5-min Rain = 0
KVA1 102046Z 16002KT 13/03 A303 RMK A01 T01300033  RH  052%=      5-min Rain = 0
KVA1 102047Z 19001KT 13/04 A303 RMK A01 T01330035  RH  051%=      5-min Rain = 0
KVA1 102048Z 20001KT 14/03 A303 RMK A01 T01350034  RH  050%=      5-min Rain = 0
KVA1 102049Z 17002KT 14/04 A303 RMK A01 T01380035  RH  050%=      5-min Rain = 0
KVA1 102050Z 18001KT 14/03 A303 RMK A01 T01390032  RH  049%=      5-min Rain = 0
KVA1 102051Z 27001KT 14/03 A303 RMK A01 T01400032  RH  048%=      5-min Rain = 0
KVA1 102052Z 34001KT 14/03 A303 RMK A01 T01400029  RH  047%=      5-min Rain = 0
KVA1 102053Z 33001KT 14/03 A303 RMK A01 T01390028  RH  047%=      5-min Rain = 0
KVA1 102054Z 32002KT 14/03 A303 RMK A01 T01360029  RH  048%=      5-min Rain = 0
KVA1 102055Z 33001KT 14/03 A303 RMK A01 T01360031  RH  049%=      5-min Rain = 0
KVA1 102056Z 36002KT 14/03 A303 RMK A01 T01360029  RH  049%=      5-min Rain = 0
KVA1 102057Z 02003KT 14/03 A303 RMK A01 T01360031  RH  049%=      5-min Rain = 0
KVA1 102058Z 04004KT 14/03 A303 RMK A01 T01360029  RH  048%=      5-min Rain = 0
KVA1 102059Z 05004KT 14/03 A303 RMK A01 T01360030  RH  048%=      5-min Rain = 0
KVA1 102100Z 06004KT 14/03 A303 RMK A01 T01370029  RH  048%=      5-min Rain = 0
KVA1 102101Z 09001KT 14/03 A303 RMK A01 T01390032  RH  048%=      5-min Rain = 0
KVA1 102102Z 31003KT 14/03 A303 RMK A01 T01420034  RH  048%=      5-min Rain = 0
KVA1 102103Z 25004KT 14/03 A303 RMK A01 T01420032  RH  047%=      5-min Rain = 0
KVA1 102104Z 19006KT 14/03 A303 RMK A01 T01410028  RH  046%=      5-min Rain = 0
KVA1 102105Z 19004KT 14/02 A303 RMK A01 T01400024  RH  045%=      5-min Rain = 0
KVA1 102106Z 18006KT 14/02 A303 RMK A01 T01400023  RH  045%=      5-min Rain = 0
KVA1 102107Z 20006KT 14/02 A3029 RMK A01 T01400021  RH  045%=      5-min Rain = 0
KVA1 102108Z 20006KT 14/02 A3029 RMK A01 T01410022  RH  045%=      5-min Rain = 0
KVA1 102109Z 20007KT 14/02 A3029 RMK A01 T01410023  RH  045%=      5-min Rain = 0
KVA1 102110Z 18005KT 14/02 A3029 RMK A01 T01420024  RH  045%=      5-min Rain = 0
KVA1 102111Z 18005KT 14/03 A3029 RMK A01 T01430026  RH  045%=      5-min Rain = 0
KVA1 102112Z 18005KT 14/02 A3029 RMK A01 T01440021  RH  043%=      5-min Rain = 0
KVA1 102113Z 21004KT 14/02 A3029 RMK A01 T01430021  RH  044%=      5-min Rain = 0
KVA1 102114Z 21006KT 14/02 A3029 RMK A01 T01420020  RH  044%=      5-min Rain = 0
KVA1 102115Z 21004KT 14/02 A3029 RMK A01 T01400017  RH  043%=      5-min Rain = 0
KVA1 102116Z 21002KT 14/02 A3029 RMK A01 T01380018  RH  044%=      5-min Rain = 0
KVA1 102117Z 24004KT 14/02 A3029 RMK A01 T01390018  RH  044%=      5-min Rain = 0
KVA1 102118Z 25002KT 14/02 A3029 RMK A01 T01400022  RH  045%=      5-min Rain = 0
KVA1 102119Z 25004KT 14/02 A3029 RMK A01 T01420022  RH  044%=      5-min Rain = 0
KVA1 102120Z 26004KT 14/02 A3029 RMK A01 T01430022  RH  044%=      5-min Rain = 0
KVA1 102121Z 23003KT 14/03 A3029 RMK A01 T01440025  RH  044%=      5-min Rain = 0
KVA1 102122Z 24004KT 15/03 A3029 RMK A01 T01470025  RH  044%=      5-min Rain = 0
KVA1 102123Z 25004KT 15/02 A3029 RMK A01 T01470023  RH  043%=      5-min Rain = 0
KVA1 102124Z 26004KT 15/02 A3029 RMK A01 T01470024  RH  043%=      5-min Rain = 0
KVA1 102125Z 26003KT 15/02 A3029 RMK A01 T01470023  RH  043%=      5-min Rain = 0
KVA1 102126Z 25003KT 15/02 A3029 RMK A01 T01460019  RH  042%=      5-min Rain = 0
KVA1 102127Z 25002KT 15/02 A3029 RMK A01 T01450017  RH  042%=      5-min Rain = 0
KVA1 102128Z 27002KT 14/02 A3029 RMK A01 T01440017  RH  042%=      5-min Rain = 0
KVA1 102129Z 29001KT 14/02 A3029 RMK A01 T01440017  RH  042%=      5-min Rain = 0
KVA1 102130Z 14000KT 15/02 A3029 RMK A01 T01450015  RH  041%=      5-min Rain = 0
KVA1 102131Z 17001KT 15/02 A3029 RMK A01 T01460018  RH  042%=      5-min Rain = 0
KVA1 102132Z 21004KT 15/02 A3029 RMK A01 T01480017  RH  041%=      5-min Rain = 0
KVA1 102133Z 19003KT 15/02 A3029 RMK A01 T01470018  RH  042%=      5-min Rain = 0
KVA1 102134Z 20004KT 15/02 A3029 RMK A01 T01460017  RH  042%=      5-min Rain = 0
KVA1 102135Z 22003KT 15/02 A3029 RMK A01 T01460015  RH  041%=      5-min Rain = 0
KVA1 102136Z 19002KT 14/01 A3029 RMK A01 T01440011  RH  040%=      5-min Rain = 0
KVA1 102137Z 17002KT 14/01 A3029 RMK A01 T01440014  RH  041%=      5-min Rain = 0
KVA1 102138Z 14002KT 15/02 A3029 RMK A01 T01460015  RH  041%=      5-min Rain = 0
KVA1 102139Z 07002KT 15/01 A3029 RMK A01 T01470011  RH  040%=      5-min Rain = 0
KVA1 102140Z 02001KT 15/01 A3029 RMK A01 T01450009  RH  040%=      5-min Rain = 0
KVA1 102141Z 02001KT 14/01 A3029 RMK A01 T01440011  RH  040%=      5-min Rain = 0
KVA1 102142Z 02002KT 14/01 A3028 RMK A01 T01430009  RH  040%=      5-min Rain = 0
KVA1 102143Z 04001KT 14/01 A3028 RMK A01 T01430007  RH  040%=      5-min Rain = 0
KVA1 102144Z 08001KT 14/01 A3028 RMK A01 T01430008  RH  040%=      5-min Rain = 0
KVA1 102145Z 20003KT 14/01 A3028 RMK A01 T01430009  RH  040%=      5-min Rain = 0
KVA1 102146Z 16003KT 14/01 A3028 RMK A01 T01440006  RH  039%=      5-min Rain = 0
KVA1 102147Z 17006KT 15/01 A3028 RMK A01 T01460008  RH  039%=      5-min Rain = 0
KVA1 102148Z 19005KT 15/00 A3028 RMK A01 T01470004  RH  038%=      5-min Rain = 0
KVA1 102149Z 19003KT 15/00 A3028 RMK A01 T01460001  RH  037%=      5-min Rain = 0
KVA1 102150Z 19005KT 15/00 A3028 RMK A01 T01450004  RH  038%=      5-min Rain = 0
KVA1 102151Z 21007KT 15/01 A3028 RMK A01 T01450005  RH  038%=      5-min Rain = 0
KVA1 102152Z 22004KT 15/00 A3028 RMK A01 T01450001  RH  037%=      5-min Rain = 0
KVA1 102153Z 22004KT 15/00 A3028 RMK A01 T01450001  RH  037%=      5-min Rain = 0
KVA1 102154Z 24003KT 15/00 A3028 RMK A01 T01460003  RH  038%=      5-min Rain = 0
KVA1 102155Z 24004KT 15/M00 A3028 RMK A01 T01471001  RH  036%=      5-min Rain = 0
KVA1 102156Z 25004KT 15/00 A3028 RMK A01 T014700-0  RH  036%=      5-min Rain = 0
KVA1 102157Z 26003KT 15/00 A3028 RMK A01 T014600-0  RH  037%=      5-min Rain = 0
KVA1 102158Z 26003KT 15/00 A3028 RMK A01 T01460001  RH  037%=      5-min Rain = 0
KVA1 102159Z 25003KT 15/M00 A3028 RMK A01 T01471001  RH  036%=      5-min Rain = 0
KVA1 102200Z 20004KT 15/M00 A3028 RMK A01 T01471004  RH  036%=      5-min Rain = 0
KVA1 102201Z 20003KT 15/M01 A3028 RMK A01 T01461006  RH  035%=      5-min Rain = 0
KVA1 102202Z 18002KT 15/M01 A3028 RMK A01 T01461005  RH  035%=      5-min Rain = 0
KVA1 102203Z 18003KT 15/M00 A3028 RMK A01 T01471003  RH  036%=      5-min Rain = 0
KVA1 102204Z 19002KT 15/M01 A3028 RMK A01 T01471005  RH  035%=      5-min Rain = 0
KVA1 102205Z 20004KT 15/M00 A3028 RMK A01 T01481002  RH  036%=      5-min Rain = 0
KVA1 102206Z 20006KT 15/M00 A3028 RMK A01 T01481001  RH  036%=      5-min Rain = 0
KVA1 102207Z 20005KT 15/00 A3028 RMK A01 T01470000  RH  037%=      5-min Rain = 0
KVA1 102208Z 19004KT 15/M00 A3028 RMK A01 T01471001  RH  036%=      5-min Rain = 0
KVA1 102209Z 21003KT 15/M00 A3028 RMK A01 T01471004  RH  035%=      5-min Rain = 0
KVA1 102210Z 22004KT 15/M00 A3028 RMK A01 T01471001  RH  036%=      5-min Rain = 0
KVA1 102211Z 21003KT 15/M01 A3028 RMK A01 T01471006  RH  035%=      5-min Rain = 0
KVA1 102212Z 17002KT 15/M00 A3028 RMK A01 T01471004  RH  036%=      5-min Rain = 0
KVA1 102213Z 17002KT 15/M00 A3028 RMK A01 T01481002  RH  036%=      5-min Rain = 0
KVA1 102214Z 18003KT 15/M00 A3028 RMK A01 T01481002  RH  036%=      5-min Rain = 0
KVA1 102215Z 18003KT 15/M00 A3028 RMK A01 T01491002  RH  036%=      5-min Rain = 0
KVA1 102216Z 19003KT 15/M00 A3028 RMK A01 T01491003  RH  035%=      5-min Rain = 0
KVA1 102217Z 23004KT 15/M00 A3028 RMK A01 T01491004  RH  035%=      5-min Rain = 0
KVA1 102218Z 19004KT 15/M00 A3028 RMK A01 T01491003  RH  035%=      5-min Rain = 0
KVA1 102219Z 21004KT 15/M01 A3028 RMK A01 T01491005  RH  035%=      5-min Rain = 0
KVA1 102220Z 19004KT 15/M00 A3028 RMK A01 T01481003  RH  035%=      5-min Rain = 0
KVA1 102221Z 19003KT 15/M01 A3028 RMK A01 T01481009  RH  034%=      5-min Rain = 0
KVA1 102222Z 19001KT 15/M01 A3028 RMK A01 T01471009  RH  034%=      5-min Rain = 0
KVA1 102223Z 15001KT 15/M01 A3028 RMK A01 T01491007  RH  034%=      5-min Rain = 0
KVA1 102224Z 14003KT 15/M01 A3028 RMK A01 T01501006  RH  034%=      5-min Rain = 0
KVA1 102225Z 14004KT 15/M01 A3028 RMK A01 T01501007  RH  034%=      5-min Rain = 0
KVA1 102226Z 14003KT 15/M01 A3028 RMK A01 T01491007  RH  034%=      5-min Rain = 0
KVA1 102227Z 17003KT 15/M00 A3028 RMK A01 T01481004  RH  035%=      5-min Rain = 0
KVA1 102228Z 18004KT 15/M01 A3028 RMK A01 T01471005  RH  035%=      5-min Rain = 0
KVA1 102229Z 20004KT 15/M01 A3028 RMK A01 T01481005  RH  035%=      5-min Rain = 0
KVA1 102230Z 18003KT 15/M01 A3028 RMK A01 T01471009  RH  034%=      5-min Rain = 0
KVA1 102231Z 20003KT 15/M01 A3029 RMK A01 T01461007  RH  035%=      5-min Rain = 0
KVA1 102232Z 18004KT 15/M01 A3029 RMK A01 T01461006  RH  035%=      5-min Rain = 0
KVA1 102233Z 16001KT 15/M01 A3029 RMK A01 T01461008  RH  035%=      5-min Rain = 0
KVA1 102234Z 19001KT 15/M01 A3029 RMK A01 T01461009  RH  034%=      5-min Rain = 0
KVA1 102235Z 16001KT 15/M01 A3028 RMK A01 T01461006  RH  035%=      5-min Rain = 0
KVA1 102236Z 17003KT 15/M00 A3029 RMK A01 T01481004  RH  035%=      5-min Rain = 0
KVA1 102237Z 18004KT 15/M00 A3028 RMK A01 T01491004  RH  035%=      5-min Rain = 0
KVA1 102238Z 17003KT 15/M01 A3028 RMK A01 T01481006  RH  035%=      5-min Rain = 0
KVA1 102239Z 13003KT 15/M00 A3028 RMK A01 T01471003  RH  036%=      5-min Rain = 0
KVA1 102240Z 13002KT 15/M01 A3028 RMK A01 T01471006  RH  035%=      5-min Rain = 0
KVA1 102241Z 17002KT 15/M01 A3028 RMK A01 T01471006  RH  035%=      5-min Rain = 0
KVA1 102242Z 15002KT 15/M00 A3028 RMK A01 T01471002  RH  036%=      5-min Rain = 0
KVA1 102243Z 17002KT 15/M00 A3029 RMK A01 T01481004  RH  035%=      5-min Rain = 0
KVA1 102244Z 20002KT 15/M01 A3029 RMK A01 T01481006  RH  035%=      5-min Rain = 0
KVA1 102245Z 22003KT 15/M01 A3029 RMK A01 T01481006  RH  035%=      5-min Rain = 0
KVA1 102246Z 19003KT 15/M01 A3029 RMK A01 T01481007  RH  034%=      5-min Rain = 0
KVA1 102247Z 18003KT 15/M00 A3029 RMK A01 T01481004  RH  035%=      5-min Rain = 0
KVA1 102248Z 19004KT 15/M01 A3029 RMK A01 T01481005  RH  035%=      5-min Rain = 0
KVA1 102249Z 21004KT 15/M01 A3029 RMK A01 T01471008  RH  034%=      5-min Rain = 0
KVA1 102250Z 23005KT 15/M01 A3029 RMK A01 T01471009  RH  034%=      5-min Rain = 0
KVA1 102251Z 23003KT 15/M01 A3029 RMK A01 T01471010  RH  034%=      5-min Rain = 0
KVA1 102252Z 25004KT 15/M01 A3029 RMK A01 T01451012  RH  034%=      5-min Rain = 0
KVA1 102253Z 26003KT 14/M02 A3029 RMK A01 T01441015  RH  033%=      5-min Rain = 0
KVA1 102254Z 25002KT 14/M02 A3029 RMK A01 T01431015  RH  033%=      5-min Rain = 0
KVA1 102255Z 21002KT 14/M01 A3029 RMK A01 T01431012  RH  034%=      5-min Rain = 0
KVA1 102256Z 21003KT 14/M01 A3029 RMK A01 T01431009  RH  035%=      5-min Rain = 0
KVA1 102257Z 20003KT 14/M01 A3029 RMK A01 T01431008  RH  035%=      5-min Rain = 0
KVA1 102258Z 20003KT 14/M01 A3029 RMK A01 T01431011  RH  035%=      5-min Rain = 0
KVA1 102259Z 20004KT 14/M01 A3029 RMK A01 T01421008  RH  036%=      5-min Rain = 0
KVA1 102300Z 20004KT 14/M01 A3029 RMK A01 T01421010  RH  035%=      5-min Rain = 0
KVA1 102301Z 21004KT 14/M01 A3029 RMK A01 T01411013  RH  034%=      5-min Rain = 0
KVA1 102302Z 22004KT 14/M01 A3029 RMK A01 T01411012  RH  035%=      5-min Rain = 0
KVA1 102303Z 21003KT 14/M01 A3029 RMK A01 T01401013  RH  035%=      5-min Rain = 0
KVA1 102304Z 22003KT 14/M01 A3029 RMK A01 T01401013  RH  035%=      5-min Rain = 0
KVA1 102305Z 21002KT 14/M01 A3029 RMK A01 T01401011  RH  035%=      5-min Rain = 0
KVA1 102306Z 21002KT 14/M01 A3029 RMK A01 T01391005  RH  037%=      5-min Rain = 0
KVA1 102307Z 21003KT 14/M01 A3029 RMK A01 T01391005  RH  037%=      5-min Rain = 0
KVA1 102308Z 21003KT 14/M01 A3029 RMK A01 T01391009  RH  036%=      5-min Rain = 0
KVA1 102309Z 21003KT 14/M01 A3029 RMK A01 T01381006  RH  037%=      5-min Rain = 0
KVA1 102310Z 20002KT 14/M01 A3029 RMK A01 T01371008  RH  037%=      5-min Rain = 0
KVA1 102311Z 20003KT 14/M01 A3029 RMK A01 T01371007  RH  037%=      5-min Rain = 0
KVA1 102312Z 19002KT 14/M01 A3029 RMK A01 T01361009  RH  037%=      5-min Rain = 0
KVA1 102313Z 19002KT 14/M01 A3029 RMK A01 T01361008  RH  037%=      5-min Rain = 0
KVA1 102314Z 18002KT 14/M01 A3029 RMK A01 T01361007  RH  037%=      5-min Rain = 0
KVA1 102315Z 19003KT 14/M01 A3029 RMK A01 T01351006  RH  038%=      5-min Rain = 0
KVA1 102316Z 19002KT 13/M01 A3029 RMK A01 T01341008  RH  037%=      5-min Rain = 0
KVA1 102317Z 20003KT 13/M00 A3029 RMK A01 T01341003  RH  039%=      5-min Rain = 0
KVA1 102318Z 21003KT 13/M01 A3029 RMK A01 T01331005  RH  039%=      5-min Rain = 0
KVA1 102319Z 20003KT 13/M01 A3029 RMK A01 T01331007  RH  038%=      5-min Rain = 0
KVA1 102320Z 20003KT 13/M01 A3029 RMK A01 T01321006  RH  039%=      5-min Rain = 0
KVA1 102321Z 20003KT 13/M00 A3029 RMK A01 T01311003  RH  039%=      5-min Rain = 0
KVA1 102322Z 19003KT 13/M00 A3029 RMK A01 T01311001  RH  040%=      5-min Rain = 0
KVA1 102323Z 19003KT 13/00 A3029 RMK A01 T013000-0  RH  041%=      5-min Rain = 0
KVA1 102324Z 19003KT 13/00 A3029 RMK A01 T01300000  RH  041%=      5-min Rain = 0
KVA1 102325Z 19002KT 13/00 A3029 RMK A01 T01290001  RH  041%=      5-min Rain = 0
KVA1 102326Z 19002KT 13/01 A3029 RMK A01 T01290007  RH  043%=      5-min Rain = 0
KVA1 102327Z 19003KT 13/01 A3029 RMK A01 T01280009  RH  044%=      5-min Rain = 0
KVA1 102328Z 19002KT 13/01 A3029 RMK A01 T01280009  RH  044%=      5-min Rain = 0
KVA1 102329Z 19001KT 13/01 A3029 RMK A01 T01270009  RH  044%=      5-min Rain = 0
KVA1 102330Z 01002KT 13/02 A3029 RMK A01 T01250015  RH  047%=      5-min Rain = 0
KVA1 102331Z 02004KT 12/02 A3029 RMK A01 T01210023  RH  051%=      5-min Rain = 0
KVA1 102332Z 03004KT 12/03 A3029 RMK A01 T01190029  RH  054%=      5-min Rain = 0
KVA1 102333Z 03005KT 12/03 A3029 RMK A01 T01180033  RH  056%=      5-min Rain = 0
KVA1 102334Z 03004KT 12/04 A3029 RMK A01 T01170038  RH  059%=      5-min Rain = 0
KVA1 102335Z 02004KT 12/04 A3029 RMK A01 T01170041  RH  060%=      5-min Rain = 0
KVA1 102336Z 01004KT 12/04 A3029 RMK A01 T01160041  RH  060%=      5-min Rain = 0
KVA1 102337Z 01004KT 12/04 A3029 RMK A01 T01160043  RH  061%=      5-min Rain = 0
KVA1 102338Z 00002KT 12/04 A3029 RMK A01 T01150044  RH  062%=      5-min Rain = 0
KVA1 102339Z 01005KT 11/04 A3029 RMK A01 T01140044  RH  062%=      5-min Rain = 0
KVA1 102340Z 02004KT 11/04 A3029 RMK A01 T01140044  RH  062%=      5-min Rain = 0
KVA1 102341Z 02003KT 11/05 A3029 RMK A01 T01130045  RH  063%=      5-min Rain = 0
KVA1 102342Z 01003KT 11/05 A3029 RMK A01 T01130045  RH  063%=      5-min Rain = 0
KVA1 102343Z 02002KT 11/05 A3029 RMK A01 T01120046  RH  064%=      5-min Rain = 0
KVA1 102344Z 01004KT 11/05 A3029 RMK A01 T01110046  RH  064%=      5-min Rain = 0
KVA1 102345Z 02004KT 11/05 A3029 RMK A01 T01100046  RH  064%=      5-min Rain = 0
KVA1 102346Z 01004KT 11/05 A3029 RMK A01 T01100046  RH  065%=      5-min Rain = 0
KVA1 102347Z 01003KT 11/05 A3029 RMK A01 T01100046  RH  065%=      5-min Rain = 0
KVA1 102348Z 03003KT 11/05 A3029 RMK A01 T01090047  RH  066%=      5-min Rain = 0
KVA1 102349Z 03003KT 11/05 A3029 RMK A01 T01080047  RH  066%=      5-min Rain = 0
KVA1 102350Z 04003KT 11/05 A3029 RMK A01 T01070048  RH  067%=      5-min Rain = 0
KVA1 102351Z 03004KT 11/05 A3029 RMK A01 T01060048  RH  067%=      5-min Rain = 0
KVA1 102352Z 02005KT 11/05 A3029 RMK A01 T01060048  RH  067%=      5-min Rain = 0
KVA1 102353Z 02004KT 11/05 A3029 RMK A01 T01050048  RH  068%=      5-min Rain = 0
KVA1 102354Z 02003KT 11/05 A3029 RMK A01 T01050048  RH  068%=      5-min Rain = 0
KVA1 102355Z 02004KT 10/05 A3029 RMK A01 T01040049  RH  069%=      5-min Rain = 0
KVA1 102356Z 02004KT 10/05 A3029 RMK A01 T01030049  RH  069%=      5-min Rain = 0
KVA1 102357Z 03005KT 10/05 A3029 RMK A01 T01020049  RH  070%=      5-min Rain = 0
KVA1 102358Z 02005KT 10/05 A3029 RMK A01 T01010049  RH  070%=      5-min Rain = 0
KVA1 102359Z 02004KT 10/05 A3029 RMK A01 T01010049  RH  070%=      5-min Rain = 0
KVA1 110000Z 02004KT 10/05 A3029 RMK A01 T01010050  RH  071%=      5-min Rain = 0
KVA1 110001Z 01004KT 10/05 A3029 RMK A01 T01000050  RH  071%=      5-min Rain = 0
KVA1 110002Z 01004KT 10/05 A3029 RMK A01 T00990051  RH  072%=      5-min Rain = 0
KVA1 110003Z 01004KT 10/05 A3029 RMK A01 T00980050  RH  072%=      5-min Rain = 0
KVA1 110004Z 01005KT 10/05 A3029 RMK A01 T00970050  RH  073%=      5-min Rain = 0
KVA1 110005Z 01004KT 10/05 A3029 RMK A01 T00970050  RH  073%=      5-min Rain = 0
KVA1 110006Z 01004KT 10/05 A3029 RMK A01 T00970051  RH  073%=      5-min Rain = 0
KVA1 110007Z 01004KT 10/05 A3029 RMK A01 T00960051  RH  073%=      5-min Rain = 0
KVA1 110008Z 02004KT 10/05 A3029 RMK A01 T00960051  RH  074%=      5-min Rain = 0
KVA1 110009Z 02004KT 10/05 A3029 RMK A01 T00950051  RH  074%=      5-min Rain = 0
KVA1 110010Z 02004KT 09/05 A3029 RMK A01 T00940051  RH  074%=      5-min Rain = 0
KVA1 110011Z 02004KT 09/05 A3029 RMK A01 T00940051  RH  075%=      5-min Rain = 0
KVA1 110012Z 02004KT 09/05 A3029 RMK A01 T00930051  RH  075%=      5-min Rain = 0
KVA1 110013Z 02005KT 09/05 A3029 RMK A01 T00920051  RH  076%=      5-min Rain = 0
KVA1 110014Z 02005KT 09/05 A3029 RMK A01 T00910051  RH  076%=      5-min Rain = 0
KVA1 110015Z 02005KT 09/05 A3029 RMK A01 T00910052  RH  076%=      5-min Rain = 0
KVA1 110016Z 02005KT 09/05 A3029 RMK A01 T00900052  RH  077%=      5-min Rain = 0
KVA1 110017Z 02005KT 09/05 A3029 RMK A01 T00910052  RH  077%=      5-min Rain = 0
KVA1 110018Z 02005KT 09/05 A3029 RMK A01 T00900052  RH  077%=      5-min Rain = 0
KVA1 110019Z 02005KT 09/05 A3029 RMK A01 T00900052  RH  077%=      5-min Rain = 0
KVA1 110020Z 02005KT 09/05 A3029 RMK A01 T00900052  RH  077%=      5-min Rain = 0
KVA1 110021Z 01005KT 09/05 A3029 RMK A01 T00890052  RH  077%=      5-min Rain = 0
KVA1 110022Z 01005KT 09/05 A3029 RMK A01 T00880051  RH  078%=      5-min Rain = 0
KVA1 110023Z 01004KT 09/05 A3029 RMK A01 T00880052  RH  078%=      5-min Rain = 0
KVA1 110024Z 01005KT 09/05 A3029 RMK A01 T00870051  RH  078%=      5-min Rain = 0
KVA1 110025Z 01005KT 09/05 A3029 RMK A01 T00860052  RH  079%=      5-min Rain = 0
KVA1 110026Z 02005KT 09/05 A3029 RMK A01 T00860051  RH  079%=      5-min Rain = 0
KVA1 110027Z 02005KT 09/05 A3029 RMK A01 T00850052  RH  079%=      5-min Rain = 0
KVA1 110028Z 03004KT 09/05 A3029 RMK A01 T00850052  RH  080%=      5-min Rain = 0
KVA1 110029Z 03004KT 09/05 A3029 RMK A01 T00850052  RH  080%=      5-min Rain = 0
KVA1 110030Z 04004KT 09/05 A3029 RMK A01 T00850052  RH  080%=      5-min Rain = 0
KVA1 110031Z 04004KT 08/05 A3029 RMK A01 T00840052  RH  080%=      5-min Rain = 0
KVA1 110032Z 04004KT 08/05 A3029 RMK A01 T00840052  RH  080%=      5-min Rain = 0
KVA1 110033Z 03004KT 08/05 A3029 RMK A01 T00840052  RH  080%=      5-min Rain = 0
KVA1 110034Z 03004KT 08/05 A3029 RMK A01 T00840052  RH  080%=      5-min Rain = 0
KVA1 110035Z 03004KT 08/05 A3029 RMK A01 T00840052  RH  081%=      5-min Rain = 0
KVA1 110036Z 03004KT 08/05 A3029 RMK A01 T00830052  RH  081%=      5-min Rain = 0
KVA1 110037Z 03003KT 08/05 A3029 RMK A01 T00840052  RH  081%=      5-min Rain = 0
KVA1 110038Z 03003KT 08/05 A3029 RMK A01 T00830052  RH  081%=      5-min Rain = 0
KVA1 110039Z 03004KT 08/05 A3029 RMK A01 T00830052  RH  081%=      5-min Rain = 0
KVA1 110040Z 04004KT 08/05 A3029 RMK A01 T00820052  RH  081%=      5-min Rain = 0
KVA1 110041Z 03004KT 08/05 A3029 RMK A01 T00820052  RH  081%=      5-min Rain = 0
KVA1 110042Z 03004KT 08/05 A3029 RMK A01 T00810052  RH  082%=      5-min Rain = 0
KVA1 110043Z 03004KT 08/05 A3029 RMK A01 T00810052  RH  082%=      5-min Rain = 0
KVA1 110044Z 03004KT 08/05 A303 RMK A01 T00810052  RH  082%=      5-min Rain = 0
KVA1 110045Z 03003KT 08/05 A303 RMK A01 T00800052  RH  082%=      5-min Rain = 0
KVA1 110046Z 03003KT 08/05 A303 RMK A01 T00800052  RH  083%=      5-min Rain = 0
KVA1 110047Z 04003KT 08/05 A303 RMK A01 T00790052  RH  083%=      5-min Rain = 0
KVA1 110048Z 04003KT 08/05 A303 RMK A01 T00790053  RH  083%=      5-min Rain = 0
KVA1 110049Z 04003KT 08/05 A303 RMK A01 T00780052  RH  084%=      5-min Rain = 0
KVA1 110050Z 03003KT 08/05 A303 RMK A01 T00780053  RH  084%=      5-min Rain = 0
KVA1 110051Z 03003KT 08/05 A303 RMK A01 T00780052  RH  084%=      5-min Rain = 0
KVA1 110052Z 04003KT 08/05 A303 RMK A01 T00780052  RH  084%=      5-min Rain = 0
KVA1 110053Z 04003KT 08/05 A303 RMK A01 T00780053  RH  084%=      5-min Rain = 0
KVA1 110054Z 04003KT 08/05 A303 RMK A01 T00780052  RH  084%=      5-min Rain = 0
KVA1 110055Z 04002KT 08/05 A303 RMK A01 T00770052  RH  084%=      5-min Rain = 0
KVA1 110056Z 06002KT 08/05 A303 RMK A01 T00770052  RH  084%=      5-min Rain = 0
KVA1 110057Z 07002KT 08/05 A303 RMK A01 T00770052  RH  084%=      5-min Rain = 0
KVA1 110058Z 06002KT 08/05 A303 RMK A01 T00770051  RH  084%=      5-min Rain = 0
KVA1 110059Z 08002KT 08/05 A303 RMK A01 T00770051  RH  084%=      5-min Rain = 0
KVA1 110100Z 10002KT 08/05 A303 RMK A01 T00760052  RH  084%=      5-min Rain = 0
KVA1 110101Z 12003KT 08/05 A303 RMK A01 T00760052  RH  085%=      5-min Rain = 0
KVA1 110102Z 11003KT 08/05 A3031 RMK A01 T00760052  RH  085%=      5-min Rain = 0
KVA1 110103Z 12003KT 08/05 A3031 RMK A01 T00750052  RH  085%=      5-min Rain = 0
KVA1 110104Z 12003KT 08/05 A3031 RMK A01 T00750052  RH  085%=      5-min Rain = 0
KVA1 110105Z 11003KT 08/05 A3031 RMK A01 T00750052  RH  085%=      5-min Rain = 0
KVA1 110106Z 11003KT 08/05 A3031 RMK A01 T00750052  RH  086%=      5-min Rain = 0
KVA1 110107Z 12003KT 08/05 A3031 RMK A01 T00750052  RH  085%=      5-min Rain = 0
KVA1 110108Z 12004KT 08/05 A3031 RMK A01 T00750052  RH  085%=      5-min Rain = 0
KVA1 110109Z 12004KT 08/05 A3031 RMK A01 T00750052  RH  085%=      5-min Rain = 0
KVA1 110110Z 12004KT 08/05 A3031 RMK A01 T00750052  RH  085%=      5-min Rain = 0
KVA1 110111Z 12003KT 08/05 A303 RMK A01 T00750052  RH  085%=      5-min Rain = 0
KVA1 110112Z 11003KT 08/05 A303 RMK A01 T00750052  RH  085%=      5-min Rain = 0
KVA1 110113Z 12003KT 08/05 A303 RMK A01 T00750052  RH  085%=      5-min Rain = 0
KVA1 110114Z 11004KT 07/05 A303 RMK A01 T00740052  RH  086%=      5-min Rain = 0
KVA1 110115Z 11004KT 07/05 A303 RMK A01 T00740052  RH  086%=      5-min Rain = 0
KVA1 110116Z 11004KT 07/05 A303 RMK A01 T00740052  RH  086%=      5-min Rain = 0
KVA1 110117Z 11004KT 07/05 A303 RMK A01 T00730052  RH  086%=      5-min Rain = 0
KVA1 110118Z 11004KT 07/05 A303 RMK A01 T00730051  RH  086%=      5-min Rain = 0
KVA1 110119Z 11004KT 07/05 A303 RMK A01 T00730051  RH  086%=      5-min Rain = 0
KVA1 110120Z 10004KT 07/05 A303 RMK A01 T00720051  RH  086%=      5-min Rain = 0
KVA1 110121Z 10004KT 07/05 A303 RMK A01 T00720051  RH  086%=      5-min Rain = 0
KVA1 110122Z 10004KT 07/05 A303 RMK A01 T00720050  RH  086%=      5-min Rain = 0
KVA1 110123Z 10004KT 07/05 A303 RMK A01 T00720050  RH  086%=      5-min Rain = 0
KVA1 110124Z 10004KT 07/05 A303 RMK A01 T00720050  RH  086%=      5-min Rain = 0
KVA1 110125Z 09004KT 07/05 A303 RMK A01 T00720050  RH  086%=      5-min Rain = 0
KVA1 110126Z 10004KT 07/05 A303 RMK A01 T00720050  RH  086%=      5-min Rain = 0
KVA1 110127Z 10004KT 07/05 A303 RMK A01 T00710049  RH  086%=      5-min Rain = 0
KVA1 110128Z 10004KT 07/05 A303 RMK A01 T00710049  RH  086%=      5-min Rain = 0
KVA1 110129Z 10004KT 07/05 A303 RMK A01 T00710049  RH  086%=      5-min Rain = 0
KVA1 110130Z 10004KT 07/05 A303 RMK A01 T00710049  RH  086%=      5-min Rain = 0
KVA1 110131Z 10004KT 07/05 A303 RMK A01 T00700049  RH  086%=      5-min Rain = 0
KVA1 110132Z 10004KT 07/05 A303 RMK A01 T00700048  RH  086%=      5-min Rain = 0
KVA1 110133Z 10004KT 07/05 A303 RMK A01 T00700048  RH  086%=      5-min Rain = 0
KVA1 110134Z 10004KT 07/05 A303 RMK A01 T00700048  RH  086%=      5-min Rain = 0
KVA1 110135Z 10004KT 07/05 A303 RMK A01 T00690048  RH  086%=      5-min Rain = 0
KVA1 110136Z 10004KT 07/05 A303 RMK A01 T00690048  RH  086%=      5-min Rain = 0
KVA1 110137Z 10004KT 07/05 A303 RMK A01 T00690048  RH  087%=      5-min Rain = 0
KVA1 110138Z 10004KT 07/05 A303 RMK A01 T00680048  RH  087%=      5-min Rain = 0
KVA1 110139Z 10004KT 07/05 A303 RMK A01 T00680048  RH  087%=      5-min Rain = 0
KVA1 110140Z 10004KT 07/05 A303 RMK A01 T00680048  RH  087%=      5-min Rain = 0
KVA1 110141Z 10003KT 07/05 A303 RMK A01 T00680047  RH  087%=      5-min Rain = 0
KVA1 110142Z 10003KT 07/05 A303 RMK A01 T00670047  RH  087%=      5-min Rain = 0
KVA1 110143Z 09004KT 07/05 A303 RMK A01 T00670047  RH  087%=      5-min Rain = 0
KVA1 110144Z 09003KT 07/05 A303 RMK A01 T00660047  RH  087%=      5-min Rain = 0
KVA1 110145Z 09004KT 07/05 A303 RMK A01 T00660047  RH  087%=      5-min Rain = 0
KVA1 110146Z 09003KT 07/05 A303 RMK A01 T00660047  RH  087%=      5-min Rain = 0
KVA1 110147Z 09003KT 07/05 A303 RMK A01 T00660047  RH  087%=      5-min Rain = 0
KVA1 110148Z 09003KT 07/05 A303 RMK A01 T00660046  RH  088%=      5-min Rain = 0
KVA1 110149Z 09003KT 07/05 A303 RMK A01 T00650046  RH  088%=      5-min Rain = 0
KVA1 110150Z 10003KT 07/05 A303 RMK A01 T00650046  RH  088%=      5-min Rain = 0
KVA1 110151Z 10003KT 07/05 A303 RMK A01 T00650046  RH  088%=      5-min Rain = 0
KVA1 110152Z 10003KT 06/05 A303 RMK A01 T00640046  RH  088%=      5-min Rain = 0
KVA1 110153Z 10003KT 06/05 A303 RMK A01 T00630046  RH  088%=      5-min Rain = 0
KVA1 110154Z 10003KT 06/05 A303 RMK A01 T00630046  RH  089%=      5-min Rain = 0
KVA1 110155Z 10003KT 06/05 A303 RMK A01 T00630045  RH  089%=      5-min Rain = 0
KVA1 110156Z 10003KT 06/05 A303 RMK A01 T00620045  RH  089%=      5-min Rain = 0
KVA1 110157Z 10003KT 06/05 A303 RMK A01 T00620045  RH  089%=      5-min Rain = 0
KVA1 110158Z 10003KT 06/05 A303 RMK A01 T00620046  RH  089%=      5-min Rain = 0
KVA1 110159Z 10002KT 06/05 A303 RMK A01 T00620046  RH  090%=      5-min Rain = 0
KVA1 110200Z 09002KT 06/05 A303 RMK A01 T00620046  RH  089%=      5-min Rain = 0
KVA1 110201Z 10002KT 06/05 A303 RMK A01 T00620046  RH  089%=      5-min Rain = 0
KVA1 110202Z 10002KT 06/05 A303 RMK A01 T00620045  RH  089%=      5-min Rain = 0
KVA1 110203Z 10003KT 06/05 A303 RMK A01 T00610045  RH  089%=      5-min Rain = 0
KVA1 110204Z 10003KT 06/05 A303 RMK A01 T00620045  RH  089%=      5-min Rain = 0
KVA1 110205Z 10002KT 06/05 A303 RMK A01 T00620045  RH  089%=      5-min Rain = 0
KVA1 110206Z 10002KT 06/05 A303 RMK A01 T00610045  RH  089%=      5-min Rain = 0
KVA1 110207Z 10002KT 06/05 A303 RMK A01 T00610045  RH  089%=      5-min Rain = 0
KVA1 110208Z 10002KT 06/05 A303 RMK A01 T00610045  RH  089%=      5-min Rain = 0
KVA1 110209Z 10002KT 06/05 A303 RMK A01 T00610045  RH  089%=      5-min Rain = 0
KVA1 110210Z 10002KT 06/04 A303 RMK A01 T00600044  RH  089%=      5-min Rain = 0
KVA1 110211Z 10002KT 06/04 A303 RMK A01 T00600043  RH  089%=      5-min Rain = 0
KVA1 110212Z 10002KT 06/04 A303 RMK A01 T00590043  RH  089%=      5-min Rain = 0
KVA1 110213Z 10003KT 06/04 A303 RMK A01 T00590044  RH  090%=      5-min Rain = 0
KVA1 110214Z 10002KT 06/04 A303 RMK A01 T00590044  RH  090%=      5-min Rain = 0
KVA1 110215Z 10002KT 06/04 A303 RMK A01 T00590044  RH  090%=      5-min Rain = 0
KVA1 110216Z 10003KT 06/04 A303 RMK A01 T00590044  RH  090%=      5-min Rain = 0
KVA1 110217Z 10003KT 06/04 A303 RMK A01 T00590044  RH  090%=      5-min Rain = 0
KVA1 110218Z 10003KT 06/04 A303 RMK A01 T00590044  RH  090%=      5-min Rain = 0
KVA1 110219Z 10003KT 06/04 A303 RMK A01 T00590044  RH  090%=      5-min Rain = 0
KVA1 110220Z 10003KT 06/04 A303 RMK A01 T00600044  RH  089%=      5-min Rain = 0
KVA1 110221Z 10003KT 06/04 A303 RMK A01 T00600044  RH  089%=      5-min Rain = 0
KVA1 110222Z 09004KT 06/04 A303 RMK A01 T00600043  RH  089%=      5-min Rain = 0
KVA1 110223Z 09004KT 06/04 A303 RMK A01 T00610043  RH  089%=      5-min Rain = 0
KVA1 110224Z 09004KT 06/04 A303 RMK A01 T00610043  RH  088%=      5-min Rain = 0
KVA1 110225Z 09004KT 06/04 A303 RMK A01 T00610043  RH  088%=      5-min Rain = 0
KVA1 110226Z 09004KT 06/04 A303 RMK A01 T00600042  RH  088%=      5-min Rain = 0
KVA1 110227Z 09004KT 06/04 A303 RMK A01 T00600042  RH  088%=      5-min Rain = 0
KVA1 110228Z 10004KT 06/04 A303 RMK A01 T00590041  RH  088%=      5-min Rain = 0
KVA1 110229Z 10004KT 06/04 A303 RMK A01 T00590042  RH  089%=      5-min Rain = 0
KVA1 110230Z 09003KT 06/04 A303 RMK A01 T00590042  RH  089%=      5-min Rain = 0
KVA1 110231Z 09004KT 06/04 A303 RMK A01 T00580042  RH  089%=      5-min Rain = 0
KVA1 110232Z 09004KT 06/04 A303 RMK A01 T00580042  RH  089%=      5-min Rain = 0
KVA1 110233Z 10004KT 06/04 A303 RMK A01 T00580042  RH  089%=      5-min Rain = 0
KVA1 110234Z 10004KT 06/04 A303 RMK A01 T00580042  RH  089%=      5-min Rain = 0
KVA1 110235Z 10004KT 06/04 A303 RMK A01 T00580042  RH  090%=      5-min Rain = 0
KVA1 110236Z 10004KT 06/04 A303 RMK A01 T00580042  RH  090%=      5-min Rain = 0
KVA1 110237Z 10004KT 06/04 A303 RMK A01 T00580042  RH  090%=      5-min Rain = 0
KVA1 110238Z 10004KT 06/04 A303 RMK A01 T00580042  RH  090%=      5-min Rain = 0
KVA1 110239Z 10004KT 06/04 A303 RMK A01 T00580042  RH  090%=      5-min Rain = 0
KVA1 110240Z 10004KT 06/04 A303 RMK A01 T00580042  RH  089%=      5-min Rain = 0
KVA1 110241Z 10004KT 06/04 A303 RMK A01 T00580042  RH  089%=      5-min Rain = 0
KVA1 110242Z 10004KT 06/04 A3029 RMK A01 T00580042  RH  089%=      5-min Rain = 0
KVA1 110243Z 10004KT 06/04 A3029 RMK A01 T00580041  RH  089%=      5-min Rain = 0
KVA1 110244Z 10004KT 06/04 A3029 RMK A01 T00580042  RH  089%=      5-min Rain = 0
KVA1 110245Z 10004KT 06/04 A3029 RMK A01 T00580042  RH  089%=      5-min Rain = 0
KVA1 110246Z 10004KT 06/04 A3029 RMK A01 T00580041  RH  089%=      5-min Rain = 0
KVA1 110247Z 10004KT 06/04 A3029 RMK A01 T00570041  RH  089%=      5-min Rain = 0
KVA1 110248Z 10004KT 06/04 A3029 RMK A01 T00570041  RH  089%=      5-min Rain = 0
KVA1 110249Z 10004KT 06/04 A303 RMK A01 T00570040  RH  089%=      5-min Rain = 0
KVA1 110250Z 10004KT 06/04 A303 RMK A01 T00560040  RH  089%=      5-min Rain = 0
KVA1 110251Z 10004KT 06/04 A303 RMK A01 T00560040  RH  089%=      5-min Rain = 0
KVA1 110252Z 10005KT 06/04 A303 RMK A01 T00560040  RH  090%=      5-min Rain = 0
KVA1 110253Z 10005KT 06/04 A303 RMK A01 T00560040  RH  090%=      5-min Rain = 0
KVA1 110254Z 10004KT 06/04 A303 RMK A01 T00560040  RH  090%=      5-min Rain = 0
KVA1 110255Z 10004KT 06/04 A303 RMK A01 T00560040  RH  090%=      5-min Rain = 0
KVA1 110256Z 10003KT 06/04 A303 RMK A01 T00560040  RH  090%=      5-min Rain = 0
KVA1 110257Z 10003KT 06/04 A303 RMK A01 T00560040  RH  090%=      5-min Rain = 0
KVA1 110258Z 09003KT 06/04 A303 RMK A01 T00550040  RH  090%=      5-min Rain = 0
KVA1 110259Z 10003KT 06/04 A303 RMK A01 T00550039  RH  090%=      5-min Rain = 0
KVA1 110300Z 10003KT 06/04 A303 RMK A01 T00550039  RH  090%=      5-min Rain = 0
KVA1 110301Z 10002KT 05/04 A303 RMK A01 T00540038  RH  090%=      5-min Rain = 0
KVA1 110302Z 10003KT 05/04 A303 RMK A01 T00540038  RH  090%=      5-min Rain = 0
KVA1 110303Z 10003KT 05/04 A303 RMK A01 T00540039  RH  090%=      5-min Rain = 0
KVA1 110304Z 10003KT 05/04 A303 RMK A01 T00540039  RH  090%=      5-min Rain = 0
KVA1 110305Z 10003KT 05/04 A303 RMK A01 T00530039  RH  090%=      5-min Rain = 0
KVA1 110306Z 10003KT 05/04 A303 RMK A01 T00540039  RH  090%=      5-min Rain = 0
KVA1 110307Z 10003KT 05/04 A303 RMK A01 T00540040  RH  090%=      5-min Rain = 0
KVA1 110308Z 11003KT 05/04 A303 RMK A01 T00540039  RH  090%=      5-min Rain = 0
KVA1 110309Z 10003KT 05/04 A303 RMK A01 T00540039  RH  090%=      5-min Rain = 0
KVA1 110310Z 10004KT 05/04 A303 RMK A01 T00540039  RH  090%=      5-min Rain = 0
KVA1 110311Z 10004KT 05/04 A303 RMK A01 T00540039  RH  090%=      5-min Rain = 0
KVA1 110312Z 10004KT 06/04 A303 RMK A01 T00550040  RH  090%=      5-min Rain = 0
KVA1 110313Z 10004KT 06/04 A303 RMK A01 T00550040  RH  090%=      5-min Rain = 0
KVA1 110314Z 10004KT 06/04 A303 RMK A01 T00560040  RH  090%=      5-min Rain = 0
KVA1 110315Z 10004KT 06/04 A303 RMK A01 T00560040  RH  089%=      5-min Rain = 0
KVA1 110316Z 11004KT 06/04 A303 RMK A01 T00560040  RH  089%=      5-min Rain = 0
KVA1 110317Z 11004KT 06/04 A303 RMK A01 T00570040  RH  089%=      5-min Rain = 0
KVA1 110318Z 11004KT 06/04 A303 RMK A01 T00570040  RH  089%=      5-min Rain = 0
KVA1 110319Z 11004KT 06/04 A303 RMK A01 T00570040  RH  089%=      5-min Rain = 0
KVA1 110320Z 11004KT 06/04 A303 RMK A01 T00580040  RH  089%=      5-min Rain = 0
KVA1 110321Z 11004KT 06/04 A303 RMK A01 T00580040  RH  088%=      5-min Rain = 0
KVA1 110322Z 11004KT 06/04 A303 RMK A01 T00580040  RH  088%=      5-min Rain = 0
KVA1 110323Z 11004KT 06/04 A303 RMK A01 T00580040  RH  088%=      5-min Rain = 0
KVA1 110324Z 11004KT 06/04 A303 RMK A01 T00580041  RH  088%=      5-min Rain = 0
KVA1 110325Z 11004KT 06/04 A303 RMK A01 T00580041  RH  089%=      5-min Rain = 0
KVA1 110326Z 11005KT 06/04 A303 RMK A01 T00580041  RH  089%=      5-min Rain = 0
KVA1 110327Z 11005KT 06/04 A303 RMK A01 T00580041  RH  089%=      5-min Rain = 0
KVA1 110328Z 12005KT 06/04 A303 RMK A01 T00580041  RH  089%=      5-min Rain = 0
KVA1 110329Z 11004KT 06/04 A303 RMK A01 T00590042  RH  089%=      5-min Rain = 0
KVA1 110330Z 11005KT 06/04 A303 RMK A01 T00580041  RH  089%=      5-min Rain = 0
KVA1 110331Z 11005KT 06/04 A303 RMK A01 T00580041  RH  089%=      5-min Rain = 0
KVA1 110332Z 11005KT 06/04 A303 RMK A01 T00580041  RH  089%=      5-min Rain = 0
KVA1 110333Z 11004KT 06/04 A303 RMK A01 T00580041  RH  089%=      5-min Rain = 0
KVA1 110334Z 11004KT 06/04 A303 RMK A01 T00580041  RH  089%=      5-min Rain = 0
KVA1 110335Z 11004KT 06/04 A303 RMK A01 T00580041  RH  089%=      5-min Rain = 0
KVA1 110336Z 11004KT 06/04 A303 RMK A01 T00580041  RH  089%=      5-min Rain = 0
KVA1 110337Z 11004KT 06/04 A303 RMK A01 T00580041  RH  089%=      5-min Rain = 0
KVA1 110338Z 11004KT 06/04 A303 RMK A01 T00580041  RH  088%=      5-min Rain = 0
KVA1 110339Z 11004KT 06/04 A303 RMK A01 T00580040  RH  088%=      5-min Rain = 0
KVA1 110340Z 10004KT 06/04 A303 RMK A01 T00580040  RH  088%=      5-min Rain = 0
KVA1 110341Z 10004KT 06/04 A303 RMK A01 T00580040  RH  088%=      5-min Rain = 0
KVA1 110342Z 10004KT 06/04 A303 RMK A01 T00580041  RH  088%=      5-min Rain = 0
KVA1 110343Z 10004KT 06/04 A303 RMK A01 T00580040  RH  088%=      5-min Rain = 0
KVA1 110344Z 10004KT 06/04 A303 RMK A01 T00580040  RH  088%=      5-min Rain = 0
KVA1 110345Z 10004KT 06/04 A303 RMK A01 T00580040  RH  088%=      5-min Rain = 0
KVA1 110346Z 10004KT 06/04 A303 RMK A01 T00580040  RH  088%=      5-min Rain = 0
KVA1 110347Z 11004KT 06/04 A303 RMK A01 T00580040  RH  088%=      5-min Rain = 0
KVA1 110348Z 11004KT 06/04 A303 RMK A01 T00580040  RH  088%=      5-min Rain = 0
KVA1 110349Z 11004KT 06/04 A303 RMK A01 T00580040  RH  088%=      5-min Rain = 0
KVA1 110350Z 10004KT 06/04 A303 RMK A01 T00580040  RH  088%=      5-min Rain = 0
KVA1 110351Z 10003KT 06/04 A303 RMK A01 T00580041  RH  088%=      5-min Rain = 0
KVA1 110352Z 11003KT 06/04 A303 RMK A01 T00580040  RH  088%=      5-min Rain = 0
KVA1 110353Z 10003KT 06/04 A303 RMK A01 T00580040  RH  088%=      5-min Rain = 0
KVA1 110354Z 10003KT 06/04 A303 RMK A01 T00580040  RH  088%=      5-min Rain = 0
KVA1 110355Z 10003KT 06/04 A303 RMK A01 T00580040  RH  088%=      5-min Rain = 0
KVA1 110356Z 10003KT 06/04 A303 RMK A01 T00580040  RH  088%=      5-min Rain = 0
KVA1 110357Z 10003KT 06/04 A303 RMK A01 T00580040  RH  088%=      5-min Rain = 0
KVA1 110358Z 10003KT 06/04 A303 RMK A01 T00580040  RH  088%=      5-min Rain = 0
KVA1 110359Z 10003KT 06/04 A303 RMK A01 T00580041  RH  088%=      5-min Rain = 0
KVA1 110400Z 09003KT 06/04 A303 RMK A01 T00580041  RH  088%=      5-min Rain = 0
KVA1 110401Z 09003KT 06/04 A303 RMK A01 T00580040  RH  088%=      5-min Rain = 0
KVA1 110402Z 09003KT 06/04 A303 RMK A01 T00580040  RH  088%=      5-min Rain = 0
KVA1 110403Z 10003KT 06/04 A303 RMK A01 T00580040  RH  088%=      5-min Rain = 0
KVA1 110404Z 10003KT 06/04 A303 RMK A01 T00580040  RH  088%=      5-min Rain = 0
KVA1 110405Z 09003KT 06/04 A303 RMK A01 T00580040  RH  088%=      5-min Rain = 0
KVA1 110406Z 09003KT 06/04 A303 RMK A01 T00570040  RH  089%=      5-min Rain = 0
KVA1 110407Z 09002KT 06/04 A303 RMK A01 T00570040  RH  089%=      5-min Rain = 0
KVA1 110408Z 09002KT 06/04 A303 RMK A01 T00580040  RH  088%=      5-min Rain = 0
KVA1 110409Z 08001KT 06/04 A303 RMK A01 T00580040  RH  088%=      5-min Rain = 0
KVA1 110410Z 06001KT 06/04 A303 RMK A01 T00570039  RH  088%=      5-min Rain = 0
KVA1 110411Z 02000KT 06/04 A303 RMK A01 T00550037  RH  088%=      5-min Rain = 0
KVA1 110412Z 35001KT 05/04 A303 RMK A01 T00530036  RH  089%=      5-min Rain = 0
KVA1 110413Z 01001KT 05/04 A303 RMK A01 T00520035  RH  089%=      5-min Rain = 0
KVA1 110414Z 01001KT 05/04 A303 RMK A01 T00510036  RH  090%=      5-min Rain = 0
KVA1 110415Z 02001KT 05/04 A303 RMK A01 T00500036  RH  091%=      5-min Rain = 0
KVA1 110416Z 04002KT 05/04 A303 RMK A01 T00500037  RH  091%=      5-min Rain = 0
KVA1 110417Z 03001KT 05/04 A303 RMK A01 T00500037  RH  091%=      5-min Rain = 0
KVA1 110418Z 01001KT 05/04 A303 RMK A01 T00500037  RH  092%=      5-min Rain = 0
KVA1 110419Z 00001KT 05/04 A3031 RMK A01 T00490036  RH  092%=      5-min Rain = 0
KVA1 110420Z 01001KT 05/04 A3031 RMK A01 T00480036  RH  092%=      5-min Rain = 0
KVA1 110421Z 35000KT 05/04 A3031 RMK A01 T00470035  RH  092%=      5-min Rain = 0
KVA1 110422Z 35001KT 05/04 A3031 RMK A01 T00470035  RH  092%=      5-min Rain = 0
KVA1 110423Z 36001KT 05/04 A3031 RMK A01 T00470035  RH  092%=      5-min Rain = 0
KVA1 110424Z 36001KT 05/03 A3031 RMK A01 T00460034  RH  092%=      5-min Rain = 0
KVA1 110425Z 34000KT 05/03 A3031 RMK A01 T00450034  RH  092%=      5-min Rain = 0
KVA1 110426Z 33001KT 05/03 A3031 RMK A01 T00450034  RH  093%=      5-min Rain = 0
KVA1 110427Z 33001KT 05/03 A3031 RMK A01 T00450034  RH  093%=      5-min Rain = 0
KVA1 110428Z 33001KT 05/04 A3031 RMK A01 T00450035  RH  093%=      5-min Rain = 0
KVA1 110429Z 33001KT 05/04 A3031 RMK A01 T00450035  RH  093%=      5-min Rain = 0
KVA1 110430Z 33000KT 05/04 A3031 RMK A01 T00450035  RH  094%=      5-min Rain = 0
KVA1 110431Z 00000KT 05/04 A3031 RMK A01 T00450036  RH  094%=      5-min Rain = 0
KVA1 110432Z 00000KT 04/04 A3031 RMK A01 T00440036  RH  094%=      5-min Rain = 0
KVA1 110433Z 00000KT 05/04 A3031 RMK A01 T00450036  RH  094%=      5-min Rain = 0
KVA1 110434Z 00000KT 04/04 A3031 RMK A01 T00440036  RH  094%=      5-min Rain = 0
KVA1 110435Z 00000KT 04/04 A3031 RMK A01 T00440035  RH  094%=      5-min Rain = 0
KVA1 110436Z 00000KT 04/04 A3031 RMK A01 T00440035  RH  094%=      5-min Rain = 0
KVA1 110437Z 00000KT 04/04 A3031 RMK A01 T00430035  RH  094%=      5-min Rain = 0
KVA1 110438Z 00000KT 04/04 A3031 RMK A01 T00430035  RH  094%=      5-min Rain = 0
KVA1 110439Z 00000KT 04/04 A3031 RMK A01 T00440036  RH  095%=      5-min Rain = 0
KVA1 110440Z 00000KT 04/04 A3031 RMK A01 T00440037  RH  095%=      5-min Rain = 0
KVA1 110441Z 00000KT 05/04 A3031 RMK A01 T00450037  RH  095%=      5-min Rain = 0
KVA1 110442Z 00000KT 04/04 A3031 RMK A01 T00440037  RH  095%=      5-min Rain = 0
KVA1 110443Z 22000KT 04/04 A3031 RMK A01 T00440036  RH  094%=      5-min Rain = 0
KVA1 110444Z 00000KT 04/04 A3031 RMK A01 T00440036  RH  094%=      5-min Rain = 0
KVA1 110445Z 16000KT 04/04 A3031 RMK A01 T00440036  RH  094%=      5-min Rain = 0
KVA1 110446Z 18000KT 04/04 A3031 RMK A01 T00430035  RH  094%=      5-min Rain = 0
KVA1 110447Z 20001KT 04/04 A3031 RMK A01 T00430035  RH  094%=      5-min Rain = 0
KVA1 110448Z 20001KT 04/04 A3031 RMK A01 T00430035  RH  094%=      5-min Rain = 0
KVA1 110449Z 21001KT 04/04 A3031 RMK A01 T00430035  RH  095%=      5-min Rain = 0
KVA1 110450Z 20001KT 04/04 A3031 RMK A01 T00430035  RH  095%=      5-min Rain = 0
KVA1 110451Z 20001KT 04/04 A3031 RMK A01 T00430035  RH  095%=      5-min Rain = 0
KVA1 110452Z 21001KT 04/04 A3031 RMK A01 T00430035  RH  095%=      5-min Rain = 0
KVA1 110453Z 21001KT 04/04 A3031 RMK A01 T00430035  RH  095%=      5-min Rain = 0
KVA1 110454Z 21001KT 04/03 A3031 RMK A01 T00420034  RH  095%=      5-min Rain = 0
KVA1 110455Z 21001KT 04/03 A3031 RMK A01 T00420034  RH  095%=      5-min Rain = 0
KVA1 110456Z 21002KT 04/03 A3031 RMK A01 T00420034  RH  095%=      5-min Rain = 0
KVA1 110457Z 21002KT 04/03 A3031 RMK A01 T00410034  RH  095%=      5-min Rain = 0
KVA1 110458Z 21002KT 04/04 A3031 RMK A01 T00420035  RH  095%=      5-min Rain = 0
KVA1 110459Z 21003KT 04/04 A3031 RMK A01 T00420035  RH  095%=      5-min Rain = 0
KVA1 110500Z 22004KT 04/04 A3031 RMK A01 T00420035  RH  095%=      5-min Rain = 0
KVA1 110501Z 22005KT 04/04 A3031 RMK A01 T00420035  RH  095%=      5-min Rain = 0
KVA1 110502Z 21005KT 04/04 A3031 RMK A01 T00420036  RH  096%=      5-min Rain = 0
KVA1 110503Z 21005KT 04/04 A3031 RMK A01 T00430037  RH  096%=      5-min Rain = 0
KVA1 110504Z 22005KT 04/04 A3031 RMK A01 T00430037  RH  096%=      5-min Rain = 0
KVA1 110505Z 22005KT 04/04 A3031 RMK A01 T00440038  RH  096%=      5-min Rain = 0
KVA1 110506Z 22006KT 04/04 A3031 RMK A01 T00440038  RH  096%=      5-min Rain = 0
KVA1 110507Z 22006KT 05/04 A3031 RMK A01 T00450038  RH  095%=      5-min Rain = 0
KVA1 110508Z 22006KT 05/04 A3031 RMK A01 T00450038  RH  095%=      5-min Rain = 0
KVA1 110509Z 22005KT 05/04 A3031 RMK A01 T00460038  RH  095%=      5-min Rain = 0
KVA1 110510Z 22005KT 05/04 A3031 RMK A01 T00450038  RH  095%=      5-min Rain = 0
KVA1 110511Z 23005KT 05/04 A3031 RMK A01 T00450037  RH  095%=      5-min Rain = 0
KVA1 110512Z 23005KT 05/04 A3031 RMK A01 T00450037  RH  094%=      5-min Rain = 0
KVA1 110513Z 23005KT 05/04 A3031 RMK A01 T00450037  RH  094%=      5-min Rain = 0
KVA1 110514Z 23005KT 05/04 A3031 RMK A01 T00460038  RH  094%=      5-min Rain = 0
KVA1 110515Z 23005KT 05/04 A3031 RMK A01 T00450037  RH  094%=      5-min Rain = 0
KVA1 110516Z 23006KT 05/04 A3031 RMK A01 T00460037  RH  094%=      5-min Rain = 0
KVA1 110517Z 24005KT 05/04 A3031 RMK A01 T00450037  RH  094%=      5-min Rain = 0
KVA1 110518Z 24005KT 05/04 A3031 RMK A01 T00460038  RH  095%=      5-min Rain = 0
KVA1 110519Z 24006KT 05/04 A3031 RMK A01 T00460038  RH  095%=      5-min Rain = 0
KVA1 110520Z 24006KT 05/04 A3031 RMK A01 T00470039  RH  095%=      5-min Rain = 0
KVA1 110521Z 24006KT 05/04 A303 RMK A01 T00470039  RH  095%=      5-min Rain = 0
KVA1 110522Z 24006KT 05/04 A303 RMK A01 T00470039  RH  094%=      5-min Rain = 0
KVA1 110523Z 24006KT 05/04 A303 RMK A01 T00470039  RH  094%=      5-min Rain = 0
KVA1 110524Z 25005KT 05/04 A303 RMK A01 T00480039  RH  094%=      5-min Rain = 0
KVA1 110525Z 25005KT 05/04 A303 RMK A01 T00480039  RH  094%=      5-min Rain = 0
KVA1 110526Z 25005KT 05/04 A303 RMK A01 T00480039  RH  094%=      5-min Rain = 0
KVA1 110527Z 25005KT 05/04 A303 RMK A01 T00480039  RH  094%=      5-min Rain = 0
KVA1 110528Z 25005KT 05/04 A303 RMK A01 T00480039  RH  094%=      5-min Rain = 0
KVA1 110529Z 25005KT 05/04 A303 RMK A01 T00480039  RH  094%=      5-min Rain = 0
KVA1 110530Z 25005KT 05/04 A303 RMK A01 T00480039  RH  094%=      5-min Rain = 0
KVA1 110531Z 25005KT 05/04 A303 RMK A01 T00480039  RH  094%=      5-min Rain = 0
KVA1 110532Z 25005KT 05/04 A303 RMK A01 T00480038  RH  094%=      5-min Rain = 0
KVA1 110533Z 25005KT 05/04 A303 RMK A01 T00480039  RH  094%=      5-min Rain = 0
KVA1 110534Z 25004KT 05/04 A303 RMK A01 T00480039  RH  094%=      5-min Rain = 0
KVA1 110535Z 25004KT 05/04 A303 RMK A01 T00480039  RH  094%=      5-min Rain = 0
KVA1 110536Z 26004KT 05/04 A303 RMK A01 T00480039  RH  094%=      5-min Rain = 0
KVA1 110537Z 27004KT 05/04 A303 RMK A01 T00480039  RH  094%=      5-min Rain = 0
KVA1 110538Z 27004KT 05/04 A303 RMK A01 T00480039  RH  094%=      5-min Rain = 0
KVA1 110539Z 27004KT 05/04 A303 RMK A01 T00480039  RH  094%=      5-min Rain = 0
KVA1 110540Z 27004KT 05/04 A303 RMK A01 T00480038  RH  094%=      5-min Rain = 0
KVA1 110541Z 26005KT 05/04 A303 RMK A01 T00470038  RH  094%=      5-min Rain = 0
KVA1 110542Z 26005KT 05/04 A303 RMK A01 T00470039  RH  094%=      5-min Rain = 0
KVA1 110543Z 25004KT 05/04 A303 RMK A01 T00470039  RH  094%=      5-min Rain = 0
KVA1 110544Z 25005KT 05/04 A303 RMK A01 T00470039  RH  094%=      5-min Rain = 0
KVA1 110545Z 26005KT 05/04 A303 RMK A01 T00470039  RH  094%=      5-min Rain = 0
KVA1 110546Z 25005KT 05/04 A303 RMK A01 T00480040  RH  094%=      5-min Rain = 0
KVA1 110547Z 26006KT 05/04 A303 RMK A01 T00480040  RH  094%=      5-min Rain = 0
KVA1 110548Z 26005KT 05/04 A303 RMK A01 T00490040  RH  094%=      5-min Rain = 0
KVA1 110549Z 26005KT 05/04 A303 RMK A01 T00490040  RH  094%=      5-min Rain = 0
KVA1 110550Z 26005KT 05/04 A303 RMK A01 T00490040  RH  094%=      5-min Rain = 0
KVA1 110551Z 26005KT 05/04 A303 RMK A01 T00500040  RH  093%=      5-min Rain = 0
KVA1 110552Z 26005KT 05/04 A303 RMK A01 T00500040  RH  093%=      5-min Rain = 0
KVA1 110553Z 26005KT 05/04 A303 RMK A01 T00500040  RH  093%=      5-min Rain = 0
KVA1 110554Z 26005KT 05/04 A303 RMK A01 T00500040  RH  093%=      5-min Rain = 0
KVA1 110555Z 26005KT 05/04 A303 RMK A01 T00500039  RH  093%=      5-min Rain = 0
KVA1 110556Z 26005KT 05/04 A303 RMK A01 T00500039  RH  093%=      5-min Rain = 0
KVA1 110557Z 27005KT 05/04 A303 RMK A01 T00500039  RH  093%=      5-min Rain = 0
KVA1 110558Z 27005KT 05/04 A303 RMK A01 T00500039  RH  093%=      5-min Rain = 0
KVA1 110559Z 27005KT 05/04 A303 RMK A01 T00500039  RH  093%=      5-min Rain = 0

Page generated in 0.0329 seconds.